M I D A S
Marine Information and Data Acquisition System
Tripno 464 of the Zeeleeuw from 2003-04-17 06:31:34 to 2003-04-17 14:26:05
Back to CruiseResearch ActivitiesStationsMapUnderway DataData graphs

EquipmentUnitsComment
TimeDGPSUTC
LatitudeDGPSDM.mWGS84
LongitudeDGPSDM.mWGS84
TemperatureSBE03/SBE38deg celciusITS90
ConductivitySBE21S/mITS90
SalinitySBE21 Practical Salinity Units
ChlorophylAChelsea fluorimeterg/lCalibrated in Aceton
Missing or incorrect values are displayed as -999
Sea surface data collected by the RV Zeeleeuw from 2003-04-17 06:31:34 to 2003-04-17 14:26:05
                                                                                    Next 1000 lines
Time Latitude Longitude Temperature Conductivity Salinity ChlorophylA
2003-04-17 06:31:42 51°13.7 2°55.77 16.991459 0.044389 0.222547 -0.680121
2003-04-17 06:31:48 51°13.71 2°55.77 16.991459 0.044285 0.222015 -0.71383
2003-04-17 06:31:52 51°13.71 2°55.76 16.995726 0.044493 0.223073 -0.680121
2003-04-17 06:31:58 51°13.71 2°55.76 16.995726 0.044493 0.223073 -0.680121
2003-04-17 06:32:02 51°13.72 2°55.76 16.997754 0.044597 0.223608 -0.71383
2003-04-17 06:32:08 51°13.72 2°55.75 16.987487 0.044804 0.224673 -0.71383
2003-04-17 06:32:12 51°13.73 2°55.75 16.982458 0.044389 0.222554 -0.71383
2003-04-17 06:32:18 51°13.73 2°55.74 17.00595 0.043765 0.219363 -0.71383
2003-04-17 06:32:22 51°13.74 2°55.73 17.013469 0.041998 0.210367 -0.646411
2003-04-17 06:32:28 51°13.75 2°55.73 17.013469 0.041998 0.210367 -0.646411
2003-04-17 06:32:32 51°13.75 2°55.72 17.023226 0.041166 0.206126 -0.646411
2003-04-17 06:32:38 51°13.76 2°55.71 17.029223 0.040439 0.202431 -0.680121
2003-04-17 06:32:42 51°13.76 2°55.7 17.030321 0.040335 0.201894 -0.646411
2003-04-17 06:32:48 51°13.77 2°55.69 17.030617 0.039711 0.198741 -0.71383
2003-04-17 06:32:52 51°13.78 2°55.69 17.031757 0.039087 0.19559 -0.680121
2003-04-17 06:32:58 51°13.79 2°55.68 17.031757 0.039087 0.19559 -0.680121
2003-04-17 06:33:02 51°13.79 2°55.67 17.032052 0.038879 0.194543 -0.680121
2003-04-17 06:33:08 51°13.8 2°55.66 17.032644 0.038567 0.192971 -0.71383
2003-04-17 06:33:12 51°13.81 2°55.65 17.033826 0.03836 0.191915 -0.680121
2003-04-17 06:33:18 51°13.82 2°55.64 17.034291 0.03836 0.191915 -0.71383
2003-04-17 06:33:22 51°13.82 2°55.64 17.034417 0.038567 0.192963 -0.680121
2003-04-17 06:33:28 51°13.83 2°55.63 17.034417 0.038567 0.192963 -0.680121
2003-04-17 06:33:32 51°13.84 2°55.62 17.035177 0.038463 0.192444 -0.71383
2003-04-17 06:33:38 51°13.85 2°55.61 17.035177 0.038671 0.193496 -0.680121
2003-04-17 06:33:42 51°13.86 2°55.61 17.035473 0.038671 0.193501 -0.71383
2003-04-17 06:33:48 51°13.87 2°55.6 17.03712 0.038879 0.194556 -0.646411
2003-04-17 06:33:52 51°13.88 2°55.59 17.037035 0.038671 0.19351 -0.680121
2003-04-17 06:33:58 51°13.89 2°55.59 17.037035 0.038671 0.19351 -0.680121
2003-04-17 06:34:02 51°13.9 2°55.58 17.038302 0.038567 0.19298 -0.646411
2003-04-17 06:34:08 51°13.91 2°55.57 17.038893 0.039087 0.195609 -0.646411
2003-04-17 06:34:12 51°13.92 2°55.57 17.038429 0.038463 0.19246 -0.71383
2003-04-17 06:34:18 51°13.93 2°55.56 17.038091 0.03836 0.191936 -0.646411
2003-04-17 06:34:22 51°13.93 2°55.55 17.038809 0.038256 0.191409 -0.680121
2003-04-17 06:34:28 51°13.95 2°55.54 17.038809 0.038256 0.191409 -0.680121
2003-04-17 06:34:32 51°13.95 2°55.54 17.040456 0.038463 0.19246 -0.680121
2003-04-17 06:34:38 51°13.97 2°55.53 17.042187 0.039191 0.196137 -0.71383
2003-04-17 06:34:42 51°13.97 2°55.52 17.044551 0.039919 0.199831 -0.71383
2003-04-17 06:34:48 51°13.98 2°55.52 17.043538 0.040958 0.205108 -0.680121
2003-04-17 06:34:52 51°13.99 2°55.51 17.044467 0.039711 0.198796 -0.71383
2003-04-17 06:34:58 51°14 2°55.5 17.044467 0.039711 0.198796 -0.71383
2003-04-17 06:35:02 51°14.01 2°55.5 17.04434 0.038983 0.195114 -0.71383
2003-04-17 06:35:08 51°14.02 2°55.49 17.046071 0.040335 0.201948 -0.680121
2003-04-17 06:35:12 51°14.03 2°55.48 17.044804 0.040646 0.20354 -0.71383
2003-04-17 06:35:18 51°14.04 2°55.47 17.044804 0.040542 0.20302 -0.71383
2003-04-17 06:35:22 51°14.05 2°55.47 17.045522 0.040542 0.20302 -0.71383
2003-04-17 06:35:28 51°14.06 2°55.46 17.045522 0.040542 0.20302 -0.71383
2003-04-17 06:35:32 51°14.07 2°55.45 17.045733 0.04127 0.206714 -0.71383
2003-04-17 06:35:38 51°14.08 2°55.44 17.046704 0.040542 0.203028 -0.71383
2003-04-17 06:35:42 51°14.09 2°55.44 17.045733 0.040439 0.202502 -0.680121
2003-04-17 06:35:48 51°14.1 2°55.43 17.045691 0.040854 0.204613 -0.680121
2003-04-17 06:35:52 51°14.11 2°55.42 17.045818 0.04127 0.206725 -0.71383
2003-04-17 06:35:58 51°14.12 2°55.41 17.045818 0.04127 0.206725 -0.71383
2003-04-17 06:36:02 51°14.13 2°55.41 17.044847 0.040854 0.204616 -0.680121
2003-04-17 06:36:08 51°14.14 2°55.4 17.045987 0.041062 0.205672 -0.680121
2003-04-17 06:36:12 51°14.15 2°55.39 17.044931 0.041478 0.207782 -0.680121
2003-04-17 06:36:18 51°14.16 2°55.38 17.043833 0.041998 0.210432 -0.680121
2003-04-17 06:36:22 51°14.17 2°55.38 17.041596 0.042414 0.212554 -0.680121
2003-04-17 06:36:28 51°14.18 2°55.37 17.041596 0.042414 0.212554 -0.680121
2003-04-17 06:36:32 51°14.19 2°55.36 17.036655 0.042829 0.214671 -0.680121
2003-04-17 06:36:38 51°14.2 2°55.35 17.02897 0.04179 0.209392 -0.680121
2003-04-17 06:36:42 51°14.21 2°55.34 17.031292 0.041998 0.210447 -0.680121
2003-04-17 06:36:48 51°14.22 2°55.32 17.030025 0.042725 0.214143 -0.680121
2003-04-17 06:36:52 51°14.23 2°55.31 17.033235 0.04179 0.209395 -0.680121
2003-04-17 06:36:58 51°14.24 2°55.3 17.033235 0.04179 0.209395 -0.680121
2003-04-17 06:37:02 51°14.24 2°55.29 17.034502 0.04231 0.212038 -0.71383
2003-04-17 06:37:08 51°14.26 2°55.27 17.036149 0.041686 0.208874 -0.680121
2003-04-17 06:37:12 51°14.26 2°55.26 17.038682 0.04075 0.204127 -0.71383
2003-04-17 06:37:18 51°14.27 2°55.24 17.038133 0.039711 0.198854 -0.71383
2003-04-17 06:37:22 51°14.28 2°55.23 17.042862 0.039607 0.198318 -0.71383
2003-04-17 06:37:28 51°14.29 2°55.21 17.042862 0.039607 0.198318 -0.71383
2003-04-17 06:37:32 51°14.3 2°55.2 17.046113 0.040542 0.203054 -0.680121
2003-04-17 06:37:38 51°14.31 2°55.17 17.046662 0.040646 0.203583 -0.71383
2003-04-17 06:37:42 51°14.32 2°55.16 17.0451 0.038775 0.19411 -0.680121
2003-04-17 06:37:48 51°14.33 2°55.13 17.041342 0.038567 0.193063 -0.646411
2003-04-17 06:37:52 51°14.34 2°55.12 17.043073 0.036696 0.183606 -0.646411
2003-04-17 06:37:58 51°14.35 2°55.09 17.043073 0.036696 0.183606 -0.646411
2003-04-17 06:38:02 51°14.36 2°55.08 17.024282 0.03441 0.172061 -0.680121
2003-04-17 06:38:08 51°14.37 2°55.05 17.046113 0.035137 0.175698 -0.680121
2003-04-17 06:38:12 51°14.38 2°55.04 17.0611 0.042621 0.213564 -0.680121
2003-04-17 06:38:18 51°14.39 2°55.01 17.055232 0.044493 0.223171 -0.680121
2003-04-17 06:38:22 51°14.4 2°54.99 17.051813 0.043765 0.21949 -0.680121
2003-04-17 06:38:28 51°14.42 2°54.97 17.051813 0.043765 0.21949 -0.680121
2003-04-17 06:38:32 51°14.43 2°54.95 17.034122 0.040023 0.200468 -0.680121
2003-04-17 06:38:38 51°14.45 2°54.93 17.006626 0.044597 0.223706 -0.71383
2003-04-17 06:38:42 51°14.46 2°54.91 17.032052 0.044493 0.223221 -0.680121
2003-04-17 06:38:48 51°14.47 2°54.89 17.039569 0.044701 0.224292 -0.71383
2003-04-17 06:38:52 51°14.48 2°54.87 17.04016 0.044285 0.222169 -0.646411
2003-04-17 06:38:58 51°14.5 2°54.84 17.04016 0.044285 0.222169 -0.646411
2003-04-17 06:39:02 51°14.51 2°54.83 17.00764 0.040542 0.203131 -0.680121
2003-04-17 06:39:08 51°14.52 2°54.8 16.944203 0.038567 0.193092 -0.680121
2003-04-17 06:39:12 51°14.54 2°54.78 16.978612 0.038775 0.194129 -0.71383
2003-04-17 06:39:18 51°14.55 2°54.76 16.899072 0.040127 0.200949 -0.71383
2003-04-17 06:39:22 51°14.56 2°54.75 16.917475 0.045116 0.226369 -0.71383
2003-04-17 06:39:28 51°14.58 2°54.73 16.917475 0.045116 0.226369 -0.71383
2003-04-17 06:39:32 51°14.59 2°54.71 16.952278 0.047611 0.239197 -0.680121
2003-04-17 06:39:38 51°14.61 2°54.69 16.984951 0.048027 0.241396 -0.680121
2003-04-17 06:39:42 51°14.62 2°54.68 16.979162 0.047611 0.239238 -0.71383
2003-04-17 06:39:48 51°14.64 2°54.66 16.992219 0.046884 0.235522 -0.680121
2003-04-17 06:39:52 51°14.65 2°54.65 16.981866 0.047299 0.237647 -0.680121
2003-04-17 06:39:58 51°14.67 2°54.63 16.981866 0.047299 0.237647 -0.680121
2003-04-17 06:40:02 51°14.68 2°54.62 16.992726 0.047299 0.23764 -0.71383
2003-04-17 06:40:08 51°14.7 2°54.6 16.99767 0.047715 0.239776 -0.71383
2003-04-17 06:40:12 51°14.71 2°54.59 16.980514 0.047092 0.236568 -0.680121
2003-04-17 06:40:18 51°14.73 2°54.57 16.992599 0.047092 0.236561 -0.680121
2003-04-17 06:40:22 51°14.74 2°54.56 17.000881 0.047715 0.23977 -0.680121
2003-04-17 06:40:28 51°14.76 2°54.54 17.000881 0.047715 0.23977 -0.680121
2003-04-17 06:40:32 51°14.77 2°54.53 16.988078 0.047195 0.237102 -0.680121
2003-04-17 06:40:38 51°14.79 2°54.51 16.975865 0.044908 0.225393 -0.71383
2003-04-17 06:40:42 51°14.8 2°54.5 16.977809 0.045636 0.229083 -0.680121
2003-04-17 06:40:48 51°14.82 2°54.48 16.970328 0.043037 0.215836 -0.646411
2003-04-17 06:40:52 51°14.83 2°54.46 16.944456 0.042518 0.213186 -0.74754
2003-04-17 06:40:58 51°14.85 2°54.45 16.944456 0.042518 0.213186 -0.74754
2003-04-17 06:41:02 51°14.86 2°54.44 16.939974 0.04179 0.209498 -0.71383
2003-04-17 06:41:08 51°14.88 2°54.42 16.962213 0.045324 0.227506 -0.680121
2003-04-17 06:41:12 51°14.89 2°54.41 16.969399 0.044597 0.223817 -0.71383
2003-04-17 06:41:18 51°14.91 2°54.39 16.976457 0.046468 0.233372 -0.71383
2003-04-17 06:41:22 51°14.92 2°54.38 16.982923 0.045844 0.230195 -0.680121
2003-04-17 06:41:28 51°14.94 2°54.36 16.982923 0.045844 0.230195 -0.680121
2003-04-17 06:41:32 51°14.95 2°54.35 16.980894 0.044389 0.22277 -0.71383
2003-04-17 06:41:38 51°14.97 2°54.34 16.97595 0.045012 0.225929 -0.71383
2003-04-17 06:41:42 51°14.98 2°54.32 16.945133 0.039919 0.200001 -0.680121
2003-04-17 06:41:48 51°15 2°54.31 16.930967 0.040231 0.201566 -0.71383
2003-04-17 06:41:52 51°15.01 2°54.29 16.91316 0.038463 0.192605 -0.71383
2003-04-17 06:41:58 51°15.03 2°54.28 16.91316 0.038463 0.192605 -0.71383
2003-04-17 06:42:02 51°15.04 2°54.26 16.888028 0.037736 0.188948 -0.680121
2003-04-17 06:42:08 51°15.05 2°54.25 16.913668 0.042414 0.212676 -0.680121
2003-04-17 06:42:12 51°15.07 2°54.23 16.923819 0.040335 0.202137 -0.680121
2003-04-17 06:42:18 51°15.08 2°54.22 16.929825 0.043661 0.219038 -0.680121
2003-04-17 06:42:22 51°15.09 2°54.2 16.941158 0.043349 0.217449 -0.71383
2003-04-17 06:42:28 51°15.11 2°54.19 16.941158 0.043349 0.217449 -0.71383
2003-04-17 06:42:32 51°15.12 2°54.17 16.94953 0.044181 0.221696 -0.646411
2003-04-17 06:42:38 51°15.14 2°54.16 16.956041 0.046364 0.232841 -0.71383
2003-04-17 06:42:42 51°15.15 2°54.15 16.965721 0.04678 0.234985 -0.680121
2003-04-17 06:42:48 51°15.17 2°54.13 16.979669 0.04678 0.235011 -0.71383
2003-04-17 06:42:52 51°15.18 2°54.11 16.98026 0.047195 0.237163 -0.71383
2003-04-17 06:42:58 51°15.2 2°54.09 16.98026 0.047195 0.237163 -0.71383
2003-04-17 06:43:02 51°15.21 2°54.08 16.984064 0.047403 0.23825 -0.680121
2003-04-17 06:43:08 51°15.23 2°54.06 16.985923 0.047715 0.239865 -0.680121
2003-04-17 06:43:12 51°15.24 2°54.05 16.980134 0.047507 0.238795 -0.680121
2003-04-17 06:43:18 51°15.25 2°54.03 16.982078 0.047403 0.23826 -0.680121
2003-04-17 06:43:22 51°15.27 2°54.01 16.981528 0.047507 0.238788 -0.680121
2003-04-17 06:43:28 51°15.28 2°53.99 16.981528 0.047507 0.238788 -0.680121
2003-04-17 06:43:32 51°15.3 2°53.98 16.979162 0.047507 0.238778 -0.680121
2003-04-17 06:43:38 51°15.31 2°53.96 16.976161 0.047611 0.239313 -0.680121
2003-04-17 06:43:42 51°15.32 2°53.95 16.98305 0.047715 0.239858 -0.71383
2003-04-17 06:43:48 51°15.34 2°53.93 16.986768 0.048755 0.2452 -0.680121
2003-04-17 06:43:52 51°15.35 2°53.92 16.991923 0.04969 0.25002 -0.680121
2003-04-17 06:43:58 51°15.37 2°53.9 16.991923 0.04969 0.25002 -0.680121
2003-04-17 06:44:02 51°15.38 2°53.88 16.991839 0.049794 0.250553 -0.71383
2003-04-17 06:44:08 51°15.4 2°53.86 16.984613 0.049587 0.249473 -0.680121
2003-04-17 06:44:12 51°15.42 2°53.85 16.982669 0.049483 0.248933 -0.71383
2003-04-17 06:44:18 51°15.43 2°53.83 16.989092 0.05021 0.252701 -0.71383
2003-04-17 06:44:22 51°15.45 2°53.82 16.990656 0.05021 0.252715 -0.71383
2003-04-17 06:44:28 51°15.46 2°53.8 16.990656 0.05021 0.252715 -0.71383
2003-04-17 06:44:32 51°15.48 2°53.78 16.993656 0.050626 0.25486 -0.71383
2003-04-17 06:44:38 51°15.49 2°53.76 16.994797 0.050418 0.253786 -0.680121
2003-04-17 06:44:42 51°15.51 2°53.75 16.996529 0.050834 0.255917 -0.680121
2003-04-17 06:44:48 51°15.52 2°53.73 16.996402 0.046676 0.234544 -0.71383
2003-04-17 06:44:52 51°15.54 2°53.71 16.992261 0.044077 0.221233 -0.71383
2003-04-17 06:44:58 51°15.56 2°53.69 16.992261 0.044077 0.221233 -0.71383
2003-04-17 06:45:02 51°15.57 2°53.68 16.983261 0.040439 0.202709 -0.71383
2003-04-17 06:45:08 51°15.59 2°53.66 16.975147 0.045324 0.227573 -0.680121
2003-04-17 06:45:12 51°15.6 2°53.65 16.984148 0.047507 0.238744 -0.680121
2003-04-17 06:45:18 51°15.62 2°53.63 16.985627 0.048859 0.245677 -0.680121
2003-04-17 06:45:22 51°15.63 2°53.62 16.990656 0.049483 0.248904 -0.71383
2003-04-17 06:45:28 51°15.65 2°53.6 16.990656 0.049483 0.248904 -0.71383
2003-04-17 06:45:32 51°15.67 2°53.59 16.99298 0.048859 0.245719 -0.680121
2003-04-17 06:45:38 51°15.69 2°53.57 16.995261 0.049587 0.249469 -0.680121
2003-04-17 06:45:42 51°15.7 2°53.56 16.996318 0.050314 0.253245 -0.680121
2003-04-17 06:45:48 51°15.72 2°53.54 16.996064 0.049898 0.251108 -0.680121
2003-04-17 06:45:52 51°15.73 2°53.52 16.992304 0.049483 0.248954 -0.680121
2003-04-17 06:45:58 51°15.75 2°53.5 16.992304 0.049483 0.248954 -0.680121
2003-04-17 06:46:02 51°15.76 2°53.49 16.993698 0.049794 0.25055 -0.71383
2003-04-17 06:46:08 51°15.78 2°53.47 16.993994 0.04969 0.250002 -0.680121
2003-04-17 06:46:12 51°15.8 2°53.46 16.989895 0.049067 0.246791 -0.680121
2003-04-17 06:46:18 51°15.82 2°53.44 16.983853 0.049898 0.251047 -0.71383
2003-04-17 06:46:22 51°15.83 2°53.43 16.990402 0.04626 0.232429 -0.680121
2003-04-17 06:46:28 51°15.85 2°53.41 16.990402 0.04626 0.232429 -0.680121
2003-04-17 06:46:32 51°15.86 2°53.4 16.992219 0.050106 0.252146 -0.71383
2003-04-17 06:46:38 51°15.88 2°53.39 16.995135 0.050002 0.251623 -0.680121
2003-04-17 06:46:42 51°15.9 2°53.37 16.996909 0.050002 0.251627 -0.680121
2003-04-17 06:46:48 51°15.92 2°53.36 16.99805 0.050106 0.252174 -0.71383
2003-04-17 06:46:52 51°15.93 2°53.35 16.997881 0.049898 0.251104 -0.680121
2003-04-17 06:46:58 51°15.95 2°53.33 16.997881 0.049898 0.251104 -0.680121
2003-04-17 06:47:02 51°15.97 2°53.32 16.997416 0.05021 0.252726 -0.680121
2003-04-17 06:47:08 51°15.99 2°53.3 16.999275 0.050002 0.251659 -0.680121
2003-04-17 06:47:12 51°16 2°53.29 16.995135 0.050002 0.251663 -0.680121
2003-04-17 06:47:18 51°16.02 2°53.27 16.997796 0.049794 0.250592 -0.680121
2003-04-17 06:47:22 51°16.03 2°53.26 16.99767 0.05021 0.25273 -0.71383
2003-04-17 06:47:28 51°16.05 2°53.24 16.99767 0.05021 0.25273 -0.71383
2003-04-17 06:47:32 51°16.07 2°53.23 16.998092 0.050314 0.253263 -0.680121
2003-04-17 06:47:38 51°16.09 2°53.22 16.998177 0.049898 0.251119 -0.71383
2003-04-17 06:47:42 51°16.1 2°53.21 16.997796 0.049898 0.251115 -0.680121
2003-04-17 06:47:48 51°16.12 2°53.19 16.999022 0.05021 0.25273 -0.71383
2003-04-17 06:47:52 51°16.13 2°53.18 16.999317 0.050626 0.254879 -0.680121
2003-04-17 06:47:58 51°16.15 2°53.16 16.999317 0.050626 0.254879 -0.680121
2003-04-17 06:48:02 51°16.17 2°53.15 16.999444 0.050106 0.252214 -0.71383
2003-04-17 06:48:08 51°16.19 2°53.13 16.99974 0.05021 0.252751 -0.680121
2003-04-17 06:48:12 51°16.2 2°53.12 16.999909 0.05021 0.252744 -0.680121
2003-04-17 06:48:18 51°16.22 2°53.1 17.000712 0.050314 0.253278 -0.71383
2003-04-17 06:48:22 51°16.23 2°53.09 17.000923 0.050418 0.253822 -0.71383
2003-04-17 06:48:28 51°16.25 2°53.08 17.000923 0.050418 0.253822 -0.71383
2003-04-17 06:48:32 51°16.27 2°53.06 17.002359 0.050106 0.252225 -0.680121
2003-04-17 06:48:38 51°16.29 2°53.05 17.002951 0.050106 0.252232 -0.680121
2003-04-17 06:48:42 51°16.3 2°53.04 17.000416 0.049587 0.249555 -0.71383
2003-04-17 06:48:48 51°16.32 2°53.02 17.001768 0.050002 0.251691 -0.680121
2003-04-17 06:48:52 51°16.33 2°53.01 17.002697 0.050314 0.253299 -0.680121
2003-04-17 06:48:58 51°16.35 2°52.99 17.002697 0.050314 0.253299 -0.680121
2003-04-17 06:49:02 51°16.36 2°52.98 17.000627 0.048963 0.246353 -0.680121
2003-04-17 06:49:08 51°16.38 2°52.96 17.002866 0.050626 0.254911 -0.680121
2003-04-17 06:49:12 51°16.4 2°52.95 17.003162 0.050314 0.253306 -0.71383
2003-04-17 06:49:18 51°16.42 2°52.94 17.000331 0.050002 0.251702 -0.71383
2003-04-17 06:49:22 51°16.43 2°52.93 17.002063 0.050314 0.253314 -0.71383
2003-04-17 06:49:28 51°16.45 2°52.91 17.002063 0.050314 0.253314 -0.71383
2003-04-17 06:49:32 51°16.46 2°52.9 17.003922 0.050106 0.252257 -0.680121
2003-04-17 06:49:38 51°16.48 2°52.88 17.00481 0.050418 0.253866 -0.71383
2003-04-17 06:49:42 51°16.5 2°52.87 17.003542 0.050626 0.254933 -0.680121
2003-04-17 06:49:48 51°16.52 2°52.85 17.003627 0.050002 0.251709 -0.71383
2003-04-17 06:49:52 51°16.53 2°52.84 17.002148 0.04969 0.250109 -0.71383
2003-04-17 06:49:58 51°16.55 2°52.82 17.002148 0.04969 0.250109 -0.71383
2003-04-17 06:50:02 51°16.56 2°52.81 17.004303 0.050106 0.252246 -0.680121
2003-04-17 06:50:08 51°16.58 2°52.8 17.00519 0.050002 0.251724 -0.680121
2003-04-17 06:50:12 51°16.6 2°52.79 17.006161 0.050314 0.253346 -0.71383
2003-04-17 06:50:18 51°16.62 2°52.77 17.004218 0.05073 0.2555 -0.680121
2003-04-17 06:50:22 51°16.63 2°52.76 17.002063 0.05021 0.252809 -0.71383
2003-04-17 06:50:28 51°16.65 2°52.75 17.002063 0.05021 0.252809 -0.71383
2003-04-17 06:50:32 51°16.66 2°52.74 17.003246 0.050106 0.252268 -0.71383
2003-04-17 06:50:38 51°16.68 2°52.73 17.00595 0.050626 0.254948 -0.71383
2003-04-17 06:50:42 51°16.7 2°52.72 17.006542 0.050626 0.254948 -0.71383
2003-04-17 06:50:48 51°16.72 2°52.7 17.006077 0.050106 0.252268 -0.71383
2003-04-17 06:50:52 51°16.73 2°52.69 16.999064 0.049275 0.247991 -0.680121
2003-04-17 06:50:58 51°16.75 2°52.68 16.999064 0.049275 0.247991 -0.680121
2003-04-17 06:51:02 51°16.76 2°52.67 16.967581 0.04626 0.232518 -0.71383
2003-04-17 06:51:08 51°16.78 2°52.66 16.969441 0.049379 0.248478 -0.680121
2003-04-17 06:51:12 51°16.8 2°52.65 16.970498 0.042102 0.211301 -0.71383
2003-04-17 06:51:18 51°16.82 2°52.64 16.976922 0.044701 0.22454 -0.680121
2003-04-17 06:51:22 51°16.83 2°52.64 16.986346 0.04969 0.250109 -0.71383
2003-04-17 06:51:28 51°16.85 2°52.63 16.986346 0.04969 0.250109 -0.71383
2003-04-17 06:51:32 51°16.86 2°52.63 16.991247 0.050314 0.253364 -0.680121
2003-04-17 06:51:38 51°16.88 2°52.62 16.987994 0.049067 0.24697 -0.71383
2003-04-17 06:51:42 51°16.9 2°52.61 16.985881 0.047195 0.237362 -0.680121
2003-04-17 06:51:48 51°16.92 2°52.61 16.973879 0.047507 0.238927 -0.71383
2003-04-17 06:51:52 51°16.93 2°52.6 16.98474 0.048547 0.244271 -0.680121
2003-04-17 06:51:58 51°16.95 2°52.59 16.98474 0.048547 0.244271 -0.680121
2003-04-17 06:52:02 51°16.97 2°52.59 16.993106 0.048443 0.243777 -0.71383
2003-04-17 06:52:08 51°16.99 2°52.58 16.99843 0.050626 0.255057 -0.71383
2003-04-17 06:52:12 51°17 2°52.57 16.998261 0.049483 0.249185 -0.71383
2003-04-17 06:52:18 51°17.02 2°52.57 16.996698 0.047507 0.239053 -0.71383
2003-04-17 06:52:22 51°17.03 2°52.56 16.993233 0.045428 0.228359 -0.680121
2003-04-17 06:52:28 51°17.05 2°52.55 16.993233 0.045428 0.228359 -0.680121
2003-04-17 06:52:32 51°17.07 2°52.54 16.993909 0.049067 0.246967 -0.71383
2003-04-17 06:52:38 51°17.09 2°52.53 16.990275 0.043869 0.220358 -0.680121
2003-04-17 06:52:42 51°17.1 2°52.53 16.993825 0.043453 0.218239 -0.71383
2003-04-17 06:52:48 51°17.12 2°52.52 16.989557 0.048131 0.242151 -0.71383
2003-04-17 06:52:52 51°17.13 2°52.51 16.988712 0.042933 0.215596 -0.71383
2003-04-17 06:52:58 51°17.15 2°52.5 16.988712 0.042933 0.215596 -0.71383
2003-04-17 06:53:02 51°17.17 2°52.5 16.981993 0.041686 0.209223 -0.71383
2003-04-17 06:53:08 51°17.19 2°52.49 16.98567 0.043349 0.21767 -0.680121
2003-04-17 06:53:12 51°17.2 2°52.48 16.991839 0.043973 0.220869 -0.680121
2003-04-17 06:53:18 51°17.22 2°52.47 16.992219 0.044389 0.222997 -0.680121
2003-04-17 06:53:22 51°17.23 2°52.46 16.981993 0.041894 0.210298 -0.71383
2003-04-17 06:53:28 51°17.25 2°52.46 16.981993 0.041894 0.210298 -0.71383
2003-04-17 06:53:32 51°17.27 2°52.45 16.98474 0.042621 0.214004 -0.71383
2003-04-17 06:53:38 51°17.29 2°52.44 16.991839 0.048547 0.244313 -0.71383
2003-04-17 06:53:42 51°17.3 2°52.44 16.988712 0.045636 0.229411 -0.71383
2003-04-17 06:53:48 51°17.32 2°52.43 16.993106 0.048235 0.242732 -0.71383
2003-04-17 06:53:52 51°17.34 2°52.42 16.994797 0.049587 0.249665 -0.71383
2003-04-17 06:53:58 51°17.36 2°52.41 16.994797 0.049587 0.249665 -0.71383
2003-04-17 06:54:02 51°17.37 2°52.41 16.998177 0.049898 0.251309 -0.680121
2003-04-17 06:54:08 51°17.39 2°52.4 16.999824 0.048651 0.244916 -0.71383
2003-04-17 06:54:12 51°17.41 2°52.39 16.999444 0.049898 0.251334 -0.71383
2003-04-17 06:54:18 51°17.43 2°52.38 16.995346 0.047715 0.240094 -0.71383
2003-04-17 06:54:22 51°17.44 2°52.38 16.988754 0.042933 0.215603 -0.680121
2003-04-17 06:54:28 51°17.46 2°52.37 16.988754 0.042933 0.215603 -0.680121
2003-04-17 06:54:32 51°17.48 2°52.37 16.98698 0.045324 0.227767 -0.71383
2003-04-17 06:54:38 51°17.5 2°52.36 16.988543 0.046468 0.233614 -0.680121
2003-04-17 06:54:42 51°17.51 2°52.36 16.994247 0.049379 0.248566 -0.71383
2003-04-17 06:54:48 51°17.53 2°52.35 16.993487 0.049794 0.250739 -0.71383
2003-04-17 06:54:52 51°17.54 2°52.35 16.990994 0.04678 0.235305 -0.71383
2003-04-17 06:54:58 51°17.57 2°52.34 16.990994 0.04678 0.235305 -0.71383
2003-04-17 06:55:02 51°17.58 2°52.34 16.993867 0.046884 0.235854 -0.71383
2003-04-17 06:55:08 51°17.6 2°52.34 16.988712 0.049483 0.249174 -0.71383
2003-04-17 06:55:12 51°17.61 2°52.33 16.989684 0.049794 0.250732 -0.71383
2003-04-17 06:55:18 51°17.64 2°52.33 16.991923 0.049379 0.248598 -0.71383
2003-04-17 06:55:22 51°17.65 2°52.33 16.993106 0.050106 0.252358 -0.71383
2003-04-17 06:55:28 51°17.67 2°52.33 16.993106 0.050106 0.252358 -0.71383
2003-04-17 06:55:32 51°17.68 2°52.33 16.996487 0.050418 0.253993 -0.71383
2003-04-17 06:55:38 51°17.71 2°52.33 16.996994 0.05021 0.252968 -0.680121
2003-04-17 06:55:42 51°17.72 2°52.33 16.996825 0.050002 0.251907 -0.71383
2003-04-17 06:55:48 51°17.74 2°52.32 16.999022 0.050522 0.254625 -0.680121
2003-04-17 06:55:52 51°17.75 2°52.32 16.999824 0.05021 0.253029 -0.71383
2003-04-17 06:55:58 51°17.77 2°52.32 16.999824 0.05021 0.253029 -0.71383
2003-04-17 06:56:02 51°17.79 2°52.32 16.99505 0.046052 0.23166 -0.71383
2003-04-17 06:56:08 51°17.81 2°52.32 16.981317 0.050314 0.253506 -0.71383
2003-04-17 06:56:12 51°17.82 2°52.32 16.993529 0.05021 0.252975 -0.71383
2003-04-17 06:56:18 51°17.84 2°52.32 16.985205 0.050002 0.251907 -0.71383
2003-04-17 06:56:22 51°17.86 2°52.32 16.990952 0.050106 0.252459 -0.71383
2003-04-17 06:56:28 51°17.88 2°52.32 16.990952 0.050106 0.252459 -0.71383
2003-04-17 06:56:32 51°17.89 2°52.33 16.976541 0.044077 0.221568 -0.71383
2003-04-17 06:56:38 51°17.91 2°52.33 16.96551 0.051354 0.258883 -0.680121
2003-04-17 06:56:42 51°17.93 2°52.34 16.978274 0.05073 0.255686 -0.680121
2003-04-17 06:56:48 51°17.95 2°52.34 16.984867 0.052497 0.264857 -0.680121
2003-04-17 06:56:52 51°17.96 2°52.35 16.993487 0.052705 0.265947 -0.680121
2003-04-17 06:56:58 51°17.98 2°52.36 16.993487 0.052705 0.265947 -0.680121
2003-04-17 06:57:02 51°17.99 2°52.36 16.997036 0.052601 0.26543 -0.680121
2003-04-17 06:57:08 51°18.01 2°52.37 16.996318 0.05229 0.263812 -0.71383
2003-04-17 06:57:12 51°18.03 2°52.38 16.999571 0.052705 0.265977 -0.646411
2003-04-17 06:57:18 51°18.05 2°52.39 16.999993 0.052497 0.264921 -0.680121
2003-04-17 06:57:22 51°18.06 2°52.4 17.000331 0.052809 0.266548 -0.680121
2003-04-17 06:57:28 51°18.08 2°52.41 17.000331 0.052809 0.266548 -0.680121
2003-04-17 06:57:32 51°18.09 2°52.41 17.001219 0.052186 0.263318 -0.680121
2003-04-17 06:57:38 51°18.11 2°52.42 16.998472 0.049587 0.249872 -0.680121
2003-04-17 06:57:42 51°18.12 2°52.43 16.974893 0.051354 0.258887 -0.71383
2003-04-17 06:57:48 51°18.14 2°52.44 16.979838 0.051146 0.257795 -0.680121
2003-04-17 06:57:52 51°18.15 2°52.45 16.988332 0.051562 0.259945 -0.680121
2003-04-17 06:57:58 51°18.17 2°52.47 16.988332 0.051562 0.259945 -0.680121
2003-04-17 06:58:02 51°18.19 2°52.48 16.992642 0.051978 0.262104 -0.680121
2003-04-17 06:58:06 51°18.2 2°52.49 16.993402 0.051666 0.26051 -0.646411
2003-04-17 06:58:12 51°18.22 2°52.5 16.993191 0.051874 0.26161 -0.680121
2003-04-17 06:58:18 51°18.23 2°52.52 16.997923 0.05177 0.261116 -0.71383
2003-04-17 06:58:22 51°18.25 2°52.53 16.999317 0.051874 0.26167 -0.71383
2003-04-17 06:58:28 51°18.26 2°52.54 16.999317 0.051874 0.26167 -0.71383
2003-04-17 06:58:32 51°18.28 2°52.55 17.000627 0.05177 0.261131 -0.71383
2003-04-17 06:58:38 51°18.3 2°52.56 17.000205 0.050938 0.256829 -0.680121
2003-04-17 06:58:42 51°18.31 2°52.57 16.999233 0.050314 0.253596 -0.680121
2003-04-17 06:58:48 51°18.33 2°52.59 17.000543 0.050938 0.256799 -0.680121
2003-04-17 06:58:52 51°18.34 2°52.6 16.999191 0.046676 0.23491 -0.680121
2003-04-17 06:58:58 51°18.36 2°52.61 16.999191 0.046676 0.23491 -0.680121
2003-04-17 06:59:02 51°18.37 2°52.62 17.000205 0.050834 0.256247 -0.680121
2003-04-17 06:59:08 51°18.39 2°52.64 16.999444 0.048755 0.245561 -0.71383
2003-04-17 06:59:12 51°18.4 2°52.65 16.999655 0.051042 0.257331 -0.680121
2003-04-17 06:59:18 51°18.42 2°52.66 17.001894 0.04969 0.250395 -0.680121
2003-04-17 06:59:22 51°18.43 2°52.67 17.001599 0.046676 0.234937 -0.71383
2003-04-17 06:59:28 51°18.45 2°52.68 17.001599 0.046676 0.234937 -0.71383
2003-04-17 06:59:32 51°18.46 2°52.69 17.002824 0.050106 0.252528 -0.680121
2003-04-17 06:59:38 51°18.48 2°52.71 17.002063 0.050522 0.254661 -0.680121
2003-04-17 06:59:42 51°18.49 2°52.72 17.002655 0.05021 0.253051 -0.680121
2003-04-17 06:59:48 51°18.51 2°52.73 17.003458 0.050106 0.252524 -0.71383
2003-04-17 06:59:52 51°18.52 2°52.74 17.003415 0.045428 0.228537 -0.71383
2003-04-17 06:59:58 51°18.54 2°52.75 17.003415 0.045428 0.228537 -0.71383
2003-04-17 07:00:02 51°18.55 2°52.76 17.00219 0.050522 0.254661 -0.680121
2003-04-17 07:00:08 51°18.57 2°52.78 17.001557 0.044493 0.223755 -0.71383
2003-04-17 07:00:12 51°18.59 2°52.79 17.002275 0.050626 0.255218 -0.71383
2003-04-17 07:00:18 51°18.6 2°52.8 17.002444 0.048963 0.246673 -0.680121
2003-04-17 07:00:22 51°18.62 2°52.81 17.002655 0.048651 0.245066 -0.680121
2003-04-17 07:00:28 51°18.64 2°52.82 17.002655 0.048651 0.245066 -0.680121
2003-04-17 07:00:32 51°18.65 2°52.83 17.003415 0.049483 0.249338 -0.71383
2003-04-17 07:00:38 51°18.67 2°52.85 17.003246 0.046988 0.236527 -0.71383
2003-04-17 07:00:42 51°18.68 2°52.86 17.003331 0.049379 0.248786 -0.680121
2003-04-17 07:00:48 51°18.7 2°52.87 17.002148 0.048963 0.246656 -0.71383
2003-04-17 07:00:52 51°18.71 2°52.88 17.001303 0.045116 0.226941 -0.680121
2003-04-17 07:00:58 51°18.73 2°52.89 17.001303 0.045116 0.226941 -0.680121
2003-04-17 07:01:02 51°18.74 2°52.9 17.000796 0.05021 0.253069 -0.71383
2003-04-17 07:01:08 51°18.76 2°52.92 16.998641 0.044181 0.222164 -0.71383
2003-04-17 07:01:12 51°18.77 2°52.93 17.025169 0.046156 0.232208 -0.680121
2003-04-17 07:01:18 51°18.79 2°52.95 16.985923 0.043765 0.21998 -0.680121
2003-04-17 07:01:22 51°18.8 2°52.96 16.993825 0.050314 0.253553 -0.680121
2003-04-17 07:01:28 51°18.82 2°52.98 16.993825 0.050314 0.253553 -0.680121
2003-04-17 07:01:32 51°18.83 2°52.99 16.996106 0.050002 0.251979 -0.71383
2003-04-17 07:01:38 51°18.85 2°53.01 16.998557 0.048443 0.243999 -0.71383
2003-04-17 07:01:42 51°18.86 2°53.02 16.999444 0.049171 0.247776 -0.680121
2003-04-17 07:01:48 51°18.87 2°53.04 17.000036 0.046468 0.233913 -0.680121
2003-04-17 07:01:52 51°18.88 2°53.05 17.000712 0.048131 0.242445 -0.680121
2003-04-17 07:01:58 51°18.9 2°53.07 17.000712 0.048131 0.242445 -0.680121
2003-04-17 07:02:02 51°18.91 2°53.08 17.001557 0.05073 0.255796 -0.680121
2003-04-17 07:02:08 51°18.93 2°53.1 17.002359 0.048859 0.246154 -0.680121
2003-04-17 07:02:12 51°18.94 2°53.11 17.004091 0.047299 0.238124 -0.71383
2003-04-17 07:02:18 51°18.96 2°53.13 17.003246 0.048443 0.243978 -0.680121
2003-04-17 07:02:22 51°18.97 2°53.14 17.003711 0.049275 0.248239 -0.71383
2003-04-17 07:02:28 51°18.98 2°53.16 17.003711 0.049275 0.248239 -0.71383
2003-04-17 07:02:32 51°18.99 2°53.18 17.005105 0.049171 0.247712 -0.680121
2003-04-17 07:02:38 51°19.01 2°53.19 17.00557 0.046572 0.234382 -0.71383
2003-04-17 07:02:42 51°19.02 2°53.21 17.005697 0.049898 0.25146 -0.680121
2003-04-17 07:02:48 51°19.04 2°53.22 17.005866 0.049483 0.249317 -0.71383
2003-04-17 07:02:52 51°19.05 2°53.24 17.006077 0.049898 0.251456 -0.71383
2003-04-17 07:02:58 51°19.07 2°53.26 17.006077 0.049898 0.251456 -0.71383
2003-04-17 07:03:02 51°19.08 2°53.27 17.006542 0.045844 0.23066 -0.71383
2003-04-17 07:03:08 51°19.1 2°53.29 17.00257 0.047611 0.239698 -0.71383
2003-04-17 07:03:12 51°19.11 2°53.3 17.004303 0.046884 0.235981 -0.71383
2003-04-17 07:03:18 51°19.12 2°53.32 17.004683 0.047923 0.24132 -0.71383
2003-04-17 07:03:22 51°19.13 2°53.33 17.005697 0.04969 0.250413 -0.71383
2003-04-17 07:03:28 51°19.15 2°53.35 17.005697 0.04969 0.250413 -0.71383
2003-04-17 07:03:32 51°19.16 2°53.36 17.006626 0.047611 0.239742 -0.680121
2003-04-17 07:03:38 51°19.18 2°53.38 17.007048 0.048339 0.243473 -0.680121
2003-04-17 07:03:42 51°19.19 2°53.39 17.007724 0.048443 0.243996 -0.680121
2003-04-17 07:03:48 51°19.21 2°53.41 17.006077 0.049275 0.248263 -0.680121
2003-04-17 07:03:52 51°19.22 2°53.42 17.007809 0.047923 0.241331 -0.680121
2003-04-17 07:03:58 51°19.24 2°53.44 17.007809 0.047923 0.241331 -0.680121
2003-04-17 07:04:02 51°19.25 2°53.45 17.009287 0.04678 0.235479 -0.71383
2003-04-17 07:04:08 51°19.26 2°53.47 17.009499 0.047403 0.238681 -0.680121
2003-04-17 07:04:12 51°19.27 2°53.48 17.009752 0.049483 0.249349 -0.680121
2003-04-17 07:04:18 51°19.29 2°53.5 17.010639 0.048339 0.243456 -0.680121
2003-04-17 07:04:22 51°19.3 2°53.51 17.010555 0.045948 0.231194 -0.680121
2003-04-17 07:04:28 51°19.32 2°53.53 17.010555 0.045948 0.231194 -0.680121
2003-04-17 07:04:32 51°19.33 2°53.54 17.011526 0.049898 0.251452 -0.71383
2003-04-17 07:04:38 51°19.35 2°53.56 17.012287 0.047299 0.238111 -0.680121
2003-04-17 07:04:42 51°19.36 2°53.57 17.009456 0.047715 0.240255 -0.71383
2003-04-17 07:04:48 51°19.38 2°53.59 17.010766 0.04678 0.235476 -0.680121
2003-04-17 07:04:52 51°19.39 2°53.6 17.010639 0.05021 0.253116 -0.71383
2003-04-17 07:04:58 51°19.4 2°53.62 17.010639 0.05021 0.253116 -0.71383
2003-04-17 07:05:02 51°19.41 2°53.63 17.010132 0.048235 0.242975 -0.680121
2003-04-17 07:05:08 51°19.43 2°53.65 17.011526 0.049794 0.25099 -0.71383
2003-04-17 07:05:12 51°19.44 2°53.66 17.012582 0.048443 0.244045 -0.680121
2003-04-17 07:05:18 51°19.46 2°53.68 17.013385 0.048963 0.246708 -0.680121
2003-04-17 07:05:22 51°19.47 2°53.69 17.014145 0.047507 0.239227 -0.680121
2003-04-17 07:05:28 51°19.49 2°53.71 17.014145 0.047507 0.239227 -0.680121
2003-04-17 07:05:32 51°19.5 2°53.72 17.014272 0.048235 0.242964 -0.680121
2003-04-17 07:05:38 51°19.52 2°53.74 17.013638 0.047403 0.238701 -0.680121
2003-04-17 07:05:42 51°19.53 2°53.75 17.015243 0.049587 0.249915 -0.71383
2003-04-17 07:05:48 51°19.54 2°53.77 17.014356 0.04626 0.232842 -0.680121
2003-04-17 07:05:52 51°19.56 2°53.78 17.015117 0.050522 0.254727 -0.680121
2003-04-17 07:05:58 51°19.57 2°53.8 17.015117 0.050522 0.254727 -0.680121
2003-04-17 07:06:02 51°19.58 2°53.81 17.015243 0.04574 0.230177 -0.680121
2003-04-17 07:06:08 51°19.6 2°53.83 17.015539 0.049275 0.248292 -0.680121
2003-04-17 07:06:12 51°19.61 2°53.84 17.016595 0.049587 0.2499 -0.71383
2003-04-17 07:06:18 51°19.63 2°53.86 17.016679 0.046156 0.232311 -0.71383
2003-04-17 07:06:22 51°19.64 2°53.87 17.015581 0.047092 0.237107 -0.71383
2003-04-17 07:06:28 51°19.66 2°53.89 17.015581 0.047092 0.237107 -0.71383
2003-04-17 07:06:32 51°19.67 2°53.9 17.016004 0.049275 0.248331 -0.71383
2003-04-17 07:06:38 51°19.68 2°53.92 17.016299 0.047299 0.238185 -0.680121
2003-04-17 07:06:42 51°19.7 2°53.93 17.017144 0.049794 0.251004 -0.71383
2003-04-17 07:06:48 51°19.71 2°53.95 17.016173 0.046156 0.232327 -0.71383
2003-04-17 07:06:52 51°19.72 2°53.96 17.017186 0.046364 0.233384 -0.680121
2003-04-17 07:06:58 51°19.74 2°53.98 17.017186 0.046364 0.233384 -0.680121
2003-04-17 07:07:02 51°19.75 2°53.99 17.018073 0.048547 0.244574 -0.646411
2003-04-17 07:07:08 51°19.77 2°54.01 17.018707 0.049898 0.251517 -0.680121
2003-04-17 07:07:12 51°19.78 2°54.02 17.018749 0.047092 0.23711 -0.680121
2003-04-17 07:07:18 51°19.8 2°54.04 17.017735 0.048651 0.245118 -0.680121
2003-04-17 07:07:22 51°19.81 2°54.05 17.01706 0.050522 0.25476 -0.71383
2003-04-17 07:07:28 51°19.82 2°54.07 17.01706 0.050522 0.25476 -0.71383
2003-04-17 07:07:32 51°19.84 2°54.08 17.01744 0.049379 0.248875 -0.71383
2003-04-17 07:07:38 51°19.85 2°54.1 17.018538 0.047715 0.24033 -0.71383
2003-04-17 07:07:42 51°19.86 2°54.11 17.01744 0.045012 0.226474 -0.680121
2003-04-17 07:07:48 51°19.88 2°54.13 17.018073 0.048235 0.242981 -0.680121
2003-04-17 07:07:52 51°19.89 2°54.14 17.018158 0.04522 0.227536 -0.680121
2003-04-17 07:07:58 51°19.91 2°54.16 17.018158 0.04522 0.227536 -0.680121
2003-04-17 07:08:02 51°19.92 2°54.17 17.019974 0.046884 0.236055 -0.71383
2003-04-17 07:08:08 51°19.94 2°54.19 17.020481 0.049379 0.248868 -0.74754
2003-04-17 07:08:12 51°19.95 2°54.2 17.021072 0.049171 0.247811 -0.71383
2003-04-17 07:08:18 51°19.96 2°54.22 17.01934 0.046052 0.231815 -0.680121
2003-04-17 07:08:22 51°19.98 2°54.23 17.020945 0.049171 0.247797 -0.71383
2003-04-17 07:08:28 51°19.99 2°54.25 17.020945 0.049171 0.247797 -0.71383
2003-04-17 07:08:32 51°20 2°54.26 17.019129 0.046364 0.233408 -0.680121
2003-04-17 07:08:38 51°20.02 2°54.27 17.020945 0.049898 0.251546 -0.71383
2003-04-17 07:08:42 51°20.03 2°54.29 17.021832 0.047715 0.240337 -0.71383
2003-04-17 07:08:48 51°20.05 2°54.3 17.020396 0.046572 0.234469 -0.680121
2003-04-17 07:08:52 51°20.06 2°54.32 17.01989 0.046572 0.234449 -0.71383
2003-04-17 07:08:58 51°20.08 2°54.33 17.01989 0.046572 0.234449 -0.71383
2003-04-17 07:09:02 51°20.09 2°54.34 17.021072 0.045636 0.229662 -0.680121
2003-04-17 07:09:08 51°20.1 2°54.36 17.021368 0.047507 0.239264 -0.680121
2003-04-17 07:09:12 51°20.12 2°54.37 17.022424 0.045844 0.230745 -0.680121
2003-04-17 07:09:18 51°20.13 2°54.39 17.023902 0.050002 0.252077 -0.680121
2003-04-17 07:09:22 51°20.14 2°54.4 17.024366 0.049171 0.247808 -0.680121
2003-04-17 07:09:28 51°20.16 2°54.42 17.024366 0.049171 0.247808 -0.680121
2003-04-17 07:09:32 51°20.17 2°54.43 17.024197 0.046988 0.236608 -0.71383
2003-04-17 07:09:38 51°20.19 2°54.45 17.024113 0.048443 0.244083 -0.71383
2003-04-17 07:09:42 51°20.2 2°54.46 17.02255 0.04626 0.232879 -0.71383
2003-04-17 07:09:48 51°20.22 2°54.48 17.023606 0.049483 0.249424 -0.680121
2003-04-17 07:09:52 51°20.23 2°54.49 17.024282 0.048235 0.243023 -0.71383
2003-04-17 07:09:58 51°20.24 2°54.51 17.024282 0.048235 0.243023 -0.71383
2003-04-17 07:10:02 51°20.26 2°54.52 17.024789 0.048651 0.245153 -0.74754
2003-04-17 07:10:08 51°20.27 2°54.54 17.025464 0.049898 0.251567 -0.680121
2003-04-17 07:10:12 51°20.28 2°54.55 17.025845 0.045844 0.230764 -0.71383
2003-04-17 07:10:18 51°20.3 2°54.57 17.02576 0.04626 0.232895 -0.71383
2003-04-17 07:10:22 51°20.31 2°54.58 17.026225 0.048963 0.246765 -0.680121
2003-04-17 07:10:28 51°20.33 2°54.6 17.026225 0.048963 0.246765 -0.680121
2003-04-17 07:10:32 51°20.34 2°54.61 17.027703 0.047403 0.238766 -0.680121
2003-04-17 07:10:38 51°20.36 2°54.63 17.028674 0.044908 0.225991 -0.680121
2003-04-17 07:10:42 51°20.37 2°54.64 17.027872 0.049171 0.247847 -0.680121
2003-04-17 07:10:48 51°20.38 2°54.66 17.028252 0.049067 0.247313 -0.680121
2003-04-17 07:10:52 51°20.4 2°54.67 17.029054 0.048547 0.24463 -0.71383
2003-04-17 07:10:58 51°20.41 2°54.68 17.029054 0.048547 0.24463 -0.71383
2003-04-17 07:11:02 51°20.42 2°54.7 17.029265 0.046468 0.233963 -0.71383
2003-04-17 07:11:08 51°20.44 2°54.71 17.029561 0.047196 0.237687 -0.680121
2003-04-17 07:11:12 51°20.45 2°54.72 17.030406 0.050626 0.25532 -0.680121
2003-04-17 07:11:18 51°20.47 2°54.74 17.03011 0.044597 0.224388 -0.71383
2003-04-17 07:11:22 51°20.48 2°54.75 17.029814 0.048547 0.244634 -0.680121
2003-04-17 07:11:28 51°20.5 2°54.77 17.029814 0.048547 0.244634 -0.680121
2003-04-17 07:11:32 51°20.51 2°54.78 17.030406 0.048443 0.244097 -0.680121
2003-04-17 07:11:38 51°20.52 2°54.8 17.030321 0.047611 0.239842 -0.680121
2003-04-17 07:11:42 51°20.54 2°54.81 17.031292 0.047611 0.239848 -0.680121
2003-04-17 07:11:48 51°20.55 2°54.83 17.031208 0.047819 0.240918 -0.680121
2003-04-17 07:11:52 51°20.56 2°54.84 17.032348 0.049275 0.248398 -0.71383
2003-04-17 07:11:58 51°20.58 2°54.86 17.032348 0.049275 0.248398 -0.71383
2003-04-17 07:12:02 51°20.59 2°54.87 17.032686 0.047611 0.239866 -0.680121
2003-04-17 07:12:08 51°20.61 2°54.89 17.029434 0.044077 0.221759 -0.71383
2003-04-17 07:12:12 51°20.62 2°54.9 17.02728 0.051354 0.259147 -0.71383
2003-04-17 07:12:18 51°20.63 2°54.92 17.030194 0.050106 0.252737 -0.71383
2003-04-17 07:12:22 51°20.65 2°54.93 17.029645 0.05021 0.25333 -0.680121
2003-04-17 07:12:28 51°20.66 2°54.95 17.029645 0.05021 0.25333 -0.680121
2003-04-17 07:12:32 51°20.67 2°54.97 17.030828 0.047819 0.24098 -0.71383
2003-04-17 07:12:38 51°20.69 2°54.99 17.030786 0.048027 0.242057 -0.71383
2003-04-17 07:12:42 51°20.7 2°55 17.027787 0.049794 0.251119 -0.680121
2003-04-17 07:12:48 51°20.71 2°55.02 17.029645 0.05125 0.258645 -0.71383
2003-04-17 07:12:52 51°20.72 2°55.03 17.030237 0.048547 0.244753 -0.680121
2003-04-17 07:12:58 51°20.74 2°55.06 17.030237 0.048547 0.244753 -0.680121
2003-04-17 07:13:02 51°20.75 2°55.07 17.031081 0.051042 0.257618 -0.680121
2003-04-17 07:13:08 51°20.76 2°55.09 17.032644 0.045428 0.228758 -0.680121
2003-04-17 07:13:12 51°20.77 2°55.11 17.031377 0.050938 0.257035 -0.71383
2003-04-17 07:13:18 51°20.79 2°55.13 17.033911 0.046468 0.23405 -0.680121
2003-04-17 07:13:22 51°20.8 2°55.14 17.034628 0.051146 0.258094 -0.71383
2003-04-17 07:13:28 51°20.81 2°55.17 17.034628 0.051146 0.258094 -0.71383
2003-04-17 07:13:32 51°20.82 2°55.18 17.034882 0.049275 0.248452 -0.680121
2003-04-17 07:13:38 51°20.83 2°55.2 17.034122 0.047611 0.239896 -0.71383
2003-04-17 07:13:42 51°20.84 2°55.22 17.035177 0.05021 0.253258 -0.680121
2003-04-17 07:13:48 51°20.86 2°55.24 17.035262 0.044493 0.223949 -0.71383
2003-04-17 07:13:52 51°20.87 2°55.26 17.035388 0.048235 0.24312 -0.680121
2003-04-17 07:13:58 51°20.88 2°55.28 17.035388 0.048235 0.24312 -0.680121
2003-04-17 07:14:02 51°20.89 2°55.29 17.035853 0.047299 0.238314 -0.680121
2003-04-17 07:14:08 51°20.9 2°55.32 17.03674 0.048963 0.246842 -0.680121
2003-04-17 07:14:12 51°20.91 2°55.33 17.037035 0.047092 0.237232 -0.680121
2003-04-17 07:14:18 51°20.93 2°55.35 17.037542 0.048859 0.246305 -0.71383
2003-04-17 07:14:22 51°20.93 2°55.37 17.039653 0.04626 0.232975 -0.680121
2003-04-17 07:14:28 51°20.95 2°55.39 17.039653 0.04626 0.232975 -0.680121
2003-04-17 07:14:32 51°20.96 2°55.41 17.038429 0.048651 0.245248 -0.680121
2003-04-17 07:14:38 51°20.97 2°55.43 17.037711 0.043869 0.22076 -0.71383
2003-04-17 07:14:42 51°20.98 2°55.44 17.035853 0.04626 0.232998 -0.71383
2003-04-17 07:14:48 51°21 2°55.47 17.03598 0.047507 0.239401 -0.71383
2003-04-17 07:14:52 51°21 2°55.48 17.034924 0.048339 0.243654 -0.680121
2003-04-17 07:14:58 51°21.02 2°55.5 17.034924 0.048339 0.243654 -0.680121
2003-04-17 07:15:02 51°21.03 2°55.52 17.034586 0.047507 0.239387 -0.680121
2003-04-17 07:15:08 51°21.04 2°55.54 17.033742 0.050522 0.25488 -0.680121
2003-04-17 07:15:12 51°21.05 2°55.55 17.031504 0.045116 0.22715 -0.680121
2003-04-17 07:15:18 51°21.07 2°55.58 17.028294 0.045116 0.227131 -0.71383
2003-04-17 07:15:22 51°21.07 2°55.59 17.030448 0.049379 0.249014 -0.71383
2003-04-17 07:15:28 51°21.09 2°55.61 17.030448 0.049379 0.249014 -0.71383
2003-04-17 07:15:32 51°21.1 2°55.63 17.031123 0.04678 0.235671 -0.74754
2003-04-17 07:15:38 51°21.11 2°55.65 17.032052 0.045948 0.231435 -0.71383
2003-04-17 07:15:42 51°21.12 2°55.67 17.031884 0.048339 0.243709 -0.71383
2003-04-17 07:15:48 51°21.14 2°55.69 17.03315 0.045948 0.231477 -0.680121
2003-04-17 07:15:52 51°21.14 2°55.7 17.033404 0.047299 0.238406 -0.680121
2003-04-17 07:15:58 51°21.16 2°55.73 17.033404 0.047299 0.238406 -0.680121
2003-04-17 07:16:02 51°21.17 2°55.74 17.033953 0.046156 0.232529 -0.680121
2003-04-17 07:16:08 51°21.18 2°55.76 17.034924 0.049587 0.250158 -0.680121
2003-04-17 07:16:12 51°21.19 2°55.78 17.035853 0.049171 0.248027 -0.680121
2003-04-17 07:16:18 51°21.21 2°55.8 17.036064 0.045532 0.229352 -0.71383
2003-04-17 07:16:22 51°21.21 2°55.81 17.036866 0.049587 0.250183 -0.71383
2003-04-17 07:16:28 51°21.23 2°55.84 17.036866 0.049587 0.250183 -0.71383
2003-04-17 07:16:32 51°21.24 2°55.85 17.03712 0.045844 0.230975 -0.680121
2003-04-17 07:16:38 51°21.25 2°55.87 17.03712 0.04574 0.230433 -0.71383
2003-04-17 07:16:42 51°21.26 2°55.89 17.037458 0.04678 0.235751 -0.71383
2003-04-17 07:16:48 51°21.27 2°55.91 17.038091 0.045116 0.227221 -0.680121
2003-04-17 07:16:52 51°21.28 2°55.93 17.037626 0.046572 0.234669 -0.71383
2003-04-17 07:16:58 51°21.3 2°55.95 17.037626 0.046572 0.234669 -0.71383
2003-04-17 07:17:02 51°21.31 2°55.96 17.036866 0.046676 0.235212 -0.680121
2003-04-17 07:17:08 51°21.32 2°55.98 17.037542 0.048859 0.246425 -0.680121
2003-04-17 07:17:12 51°21.33 2°56 17.037838 0.046052 0.23202 -0.680121
2003-04-17 07:17:18 51°21.35 2°56.02 17.037035 0.049067 0.24749 -0.680121
2003-04-17 07:17:22 51°21.35 2°56.04 17.037711 0.047715 0.240536 -0.71383
2003-04-17 07:17:28 51°21.37 2°56.06 17.037711 0.047715 0.240536 -0.71383
2003-04-17 07:17:32 51°21.38 2°56.07 17.04054 0.049898 0.251762 -0.71383
2003-04-17 07:17:38 51°21.39 2°56.09 17.041131 0.045948 0.231491 -0.71383
2003-04-17 07:17:42 51°21.4 2°56.11 17.039104 0.04626 0.233108 -0.71383
2003-04-17 07:17:48 51°21.42 2°56.13 17.0394 0.045844 0.230991 -0.680121
2003-04-17 07:17:52 51°21.42 2°56.15 17.040244 0.045948 0.231527 -0.71383
2003-04-17 07:17:58 51°21.44 2°56.17 17.040244 0.045948 0.231527 -0.71383
2003-04-17 07:18:02 51°21.45 2°56.18 17.039991 0.048131 0.242746 -0.680121
2003-04-17 07:18:08 51°21.46 2°56.2 17.039864 0.045324 0.228327 -0.680121
2003-04-17 07:18:12 51°21.47 2°56.22 17.039949 0.043869 0.220879 -0.680121
2003-04-17 07:18:18 51°21.48 2°56.24 17.039864 0.049587 0.250205 -0.680121
2003-04-17 07:18:22 51°21.49 2°56.26 17.040371 0.049483 0.249688 -0.71383
2003-04-17 07:18:28 51°21.51 2°56.28 17.040371 0.049483 0.249688 -0.71383
2003-04-17 07:18:32 51°21.52 2°56.29 17.038471 0.049275 0.248615 -0.680121
2003-04-17 07:18:38 51°21.53 2°56.31 17.039949 0.047819 0.241148 -0.71383
2003-04-17 07:18:42 51°21.54 2°56.33 17.038387 0.04522 0.227824 -0.680121
2003-04-17 07:18:48 51°21.55 2°56.35 17.040751 0.045844 0.231047 -0.680121
2003-04-17 07:18:52 51°21.56 2°56.37 17.041722 0.045948 0.231589 -0.74754
2003-04-17 07:18:58 51°21.58 2°56.39 17.041722 0.045948 0.231589 -0.74754
2003-04-17 07:19:02 51°21.59 2°56.4 17.041933 0.047403 0.239052 -0.71383
2003-04-17 07:19:08 51°21.6 2°56.42 17.0432 0.046572 0.234769 -0.71383
2003-04-17 07:19:12 51°21.61 2°56.44 17.044424 0.046156 0.232648 -0.71383
2003-04-17 07:19:18 51°21.62 2°56.46 17.045016 0.045116 0.227334 -0.71383
2003-04-17 07:19:22 51°21.63 2°56.47 17.045818 0.049379 0.24925 -0.71383
2003-04-17 07:19:28 51°21.65 2°56.5 17.045818 0.049379 0.24925 -0.71383
2003-04-17 07:19:32 51°21.66 2°56.51 17.046071 0.046988 0.236956 -0.71383
2003-04-17 07:19:38 51°21.67 2°56.53 17.044171 0.045116 0.227354 -0.680121
2003-04-17 07:19:42 51°21.68 2°56.55 17.045733 0.050626 0.255683 -0.71383
2003-04-17 07:19:48 51°21.69 2°56.57 17.045818 0.046884 0.236409 -0.71383
2003-04-17 07:19:52 51°21.7 2°56.58 17.046367 0.046052 0.232122 -0.71383
2003-04-17 07:19:58 51°21.72 2°56.61 17.046367 0.046052 0.232122 -0.71383
2003-04-17 07:20:02 51°21.73 2°56.62 17.046662 0.047715 0.240639 -0.680121
2003-04-17 07:20:08 51°21.74 2°56.64 17.047338 0.049275 0.248661 -0.71383
2003-04-17 07:20:12 51°21.75 2°56.66 17.046324 0.048755 0.245989 -0.71383
2003-04-17 07:20:18 51°21.76 2°56.68 17.047591 0.046676 0.235319 -0.680121
2003-04-17 07:20:22 51°21.77 2°56.69 17.048731 0.048859 0.24658 -0.71383
2003-04-17 07:20:28 51°21.79 2°56.71 17.048731 0.048859 0.24658 -0.71383
2003-04-17 07:20:32 51°21.8 2°56.73 17.047675 0.048443 0.244435 -0.71383
2003-04-17 07:20:38 51°21.81 2°56.75 17.04738 0.046884 0.236436 -0.71383
2003-04-17 07:20:42 51°21.82 2°56.77 17.048351 0.049171 0.248223 -0.680121
2003-04-17 07:20:48 51°21.83 2°56.79 17.049322 0.050626 0.255745 -0.71383
2003-04-17 07:20:52 51°21.84 2°56.8 17.049195 0.049587 0.250391 -0.680121
2003-04-17 07:20:58 51°21.86 2°56.82 17.049195 0.049587 0.250391 -0.680121
2003-04-17 07:21:02 51°21.87 2°56.84 17.04738 0.05021 0.253595 -0.71383
2003-04-17 07:21:08 51°21.88 2°56.86 17.047464 0.047923 0.241817 -0.680121
2003-04-17 07:21:12 51°21.89 2°56.87 17.048351 0.049379 0.249303 -0.646411
2003-04-17 07:21:18 51°21.9 2°56.9 17.048942 0.045636 0.230084 -0.680121
2003-04-17 07:21:22 51°21.91 2°56.91 17.049575 0.049171 0.248226 -0.680121
2003-04-17 07:21:28 51°21.93 2°56.93 17.049575 0.049171 0.248226 -0.680121
2003-04-17 07:21:32 51°21.94 2°56.95 17.050588 0.04522 0.227941 -0.71383
2003-04-17 07:21:38 51°21.95 2°56.97 17.051728 0.05021 0.253617 -0.680121
2003-04-17 07:21:42 51°21.96 2°56.98 17.051179 0.046676 0.235443 -0.71383
2003-04-17 07:21:48 51°21.97 2°57.01 17.051011 0.05073 0.256325 -0.680121
2003-04-17 07:21:52 51°21.98 2°57.02 17.051137 0.045012 0.226931 -0.680121
2003-04-17 07:21:58 51°21.99 2°57.04 17.051137 0.045012 0.226931 -0.680121
2003-04-17 07:22:02 51°22 2°57.06 17.049871 0.050002 0.252565 -0.74754
2003-04-17 07:22:08 51°22.02 2°57.08 17.049871 0.047403 0.239233 -0.71383
2003-04-17 07:22:12 51°22.03 2°57.1 17.050293 0.047819 0.241355 -0.71383
2003-04-17 07:22:18 51°22.04 2°57.12 17.051179 0.047299 0.238682 -0.680121
2003-04-17 07:22:22 51°22.05 2°57.14 17.052404 0.047507 0.239736 -0.71383
2003-04-17 07:22:28 51°22.06 2°57.16 17.052404 0.047507 0.239736 -0.71383
2003-04-17 07:22:32 51°22.07 2°57.17 17.053966 0.048755 0.246155 -0.680121
2003-04-17 07:22:38 51°22.08 2°57.2 17.054303 0.048755 0.246169 -0.71383
2003-04-17 07:22:42 51°22.09 2°57.21 17.055654 0.048027 0.24242 -0.680121
2003-04-17 07:22:48 51°22.1 2°57.24 17.056499 0.047923 0.24189 -0.680121
2003-04-17 07:22:52 51°22.11 2°57.25 17.056879 0.048755 0.246179 -0.74754
2003-04-17 07:22:58 51°22.12 2°57.28 17.056879 0.048755 0.246179 -0.74754
2003-04-17 07:23:02 51°22.13 2°57.29 17.057976 0.046884 0.236547 -0.680121
2003-04-17 07:23:08 51°22.14 2°57.32 17.058863 0.046572 0.234944 -0.71383
2003-04-17 07:23:12 51°22.15 2°57.33 17.056288 0.050002 0.252572 -0.680121
2003-04-17 07:23:18 51°22.17 2°57.36 17.05671 0.047611 0.24027 -0.680121
2003-04-17 07:23:22 51°22.17 2°57.37 17.057005 0.048131 0.242934 -0.71383
2003-04-17 07:23:28 51°22.19 2°57.39 17.057005 0.048131 0.242934 -0.71383
2003-04-17 07:23:32 51°22.19 2°57.41 17.050208 0.044493 0.224268 -0.680121
2003-04-17 07:23:38 51°22.21 2°57.43 17.052615 0.05021 0.25365 -0.71383
2003-04-17 07:23:42 51°22.21 2°57.45 17.055063 0.045844 0.231232 -0.680121
2003-04-17 07:23:48 51°22.23 2°57.48 17.050208 0.045012 0.226948 -0.680121
2003-04-17 07:23:52 51°22.23 2°57.49 17.055359 0.047715 0.240838 -0.71383
2003-04-17 07:23:58 51°22.24 2°57.52 17.055359 0.047715 0.240838 -0.71383
2003-04-17 07:24:02 51°22.25 2°57.54 17.057427 0.049483 0.249981 -0.71383
2003-04-17 07:24:08 51°22.26 2°57.56 17.057385 0.047611 0.240373 -0.680121
2003-04-17 07:24:12 51°22.27 2°57.58 17.056836 0.048547 0.245212 -0.71383
2003-04-17 07:24:18 51°22.28 2°57.6 17.058567 0.05073 0.256505 -0.71383
2003-04-17 07:24:22 51°22.29 2°57.62 17.058736 0.049587 0.250589 -0.71383
2003-04-17 07:24:28 51°22.3 2°57.65 17.058736 0.049587 0.250589 -0.71383
2003-04-17 07:24:32 51°22.31 2°57.66 17.059285 0.047403 0.239342 -0.71383
2003-04-17 07:24:38 51°22.32 2°57.69 17.059918 0.047196 0.238264 -0.680121
2003-04-17 07:24:42 51°22.33 2°57.71 17.059538 0.048339 0.244142 -0.71383
2003-04-17 07:24:48 51°22.34 2°57.73 17.060087 0.045636 0.230238 -0.680121
2003-04-17 07:24:52 51°22.34 2°57.75 17.060551 0.047507 0.239849 -0.71383
2003-04-17 07:24:58 51°22.36 2°57.77 17.060551 0.047507 0.239849 -0.71383
2003-04-17 07:25:02 51°22.36 2°57.79 17.061269 0.049067 0.24789 -0.71383
2003-04-17 07:25:08 51°22.37 2°57.82 17.06186 0.044285 0.223324 -0.680121
2003-04-17 07:25:12 51°22.38 2°57.83 17.061649 0.044701 0.225447 -0.71383
2003-04-17 07:25:18 51°22.39 2°57.86 17.061733 0.043349 0.218532 -0.71383
2003-04-17 07:25:22 51°22.4 2°57.87 17.063126 0.048547 0.245215 -0.71383
2003-04-17 07:25:28 51°22.41 2°57.9 17.063126 0.048547 0.245215 -0.71383
2003-04-17 07:25:32 51°22.42 2°57.92 17.063759 0.044701 0.22546 -0.71383
2003-04-17 07:25:38 51°22.43 2°57.94 17.063801 0.046988 0.237203 -0.680121
2003-04-17 07:25:42 51°22.44 2°57.96 17.063632 0.046572 0.235041 -0.680121
2003-04-17 07:25:48 51°22.45 2°57.98 17.063928 0.04626 0.233437 -0.680121
2003-04-17 07:25:52 51°22.46 2°58 17.064603 0.04626 0.233447 -0.680121
2003-04-17 07:25:58 51°22.47 2°58.03 17.064603 0.04626 0.233447 -0.680121
2003-04-17 07:26:02 51°22.48 2°58.04 17.06511 0.043869 0.221193 -0.71383
2003-04-17 07:26:08 51°22.49 2°58.07 17.065025 0.044077 0.222267 -0.71383
2003-04-17 07:26:12 51°22.5 2°58.09 17.066249 0.044597 0.224921 -0.680121
2003-04-17 07:26:18 51°22.51 2°58.11 17.066545 0.048651 0.245743 -0.71383
2003-04-17 07:26:22 51°22.51 2°58.13 17.067895 0.043453 0.219066 -0.680121
2003-04-17 07:26:28 51°22.53 2°58.16 17.067895 0.043453 0.219066 -0.680121
2003-04-17 07:26:32 51°22.53 2°58.17 17.068022 0.048755 0.246299 -0.680121
2003-04-17 07:26:38 51°22.54 2°58.2 17.067642 0.044805 0.226008 -0.71383
2003-04-17 07:26:42 51°22.55 2°58.22 17.068571 0.045844 0.231347 -0.71383
2003-04-17 07:26:48 51°22.56 2°58.24 17.069879 0.042933 0.21644 -0.71383
2003-04-17 07:26:52 51°22.57 2°58.26 17.068908 0.045532 0.229774 -0.680121
2003-04-17 07:26:58 51°22.58 2°58.29 17.068908 0.045532 0.229774 -0.680121
2003-04-17 07:27:02 51°22.59 2°58.3 17.070934 0.049067 0.247979 -0.680121
2003-04-17 07:27:08 51°22.6 2°58.33 17.07047 0.048339 0.24423 -0.71383
2003-04-17 07:27:12 51°22.6 2°58.35 17.071736 0.048131 0.243167 -0.71383
2003-04-17 07:27:18 51°22.61 2°58.37 17.070554 0.044181 0.222878 -0.680121
2003-04-17 07:27:22 51°22.62 2°58.39 17.070808 0.046364 0.234074 -0.71383
2003-04-17 07:27:28 51°22.63 2°58.42 17.070808 0.046364 0.234074 -0.71383
2003-04-17 07:27:32 51°22.64 2°58.43 17.071061 0.045636 0.230337 -0.71383
2003-04-17 07:27:38 51°22.65 2°58.46 17.071103 0.048235 0.243712 -0.680121
2003-04-17 07:27:42 51°22.66 2°58.48 17.072707 0.046988 0.237291 -0.71383
2003-04-17 07:27:48 51°22.67 2°58.5 17.073044 0.043973 0.221814 -0.680121
2003-04-17 07:27:52 51°22.67 2°58.52 17.072876 0.043453 0.219141 -0.71383
2003-04-17 07:27:58 51°22.69 2°58.55 17.072876 0.043453 0.219141 -0.71383
2003-04-17 07:28:02 51°22.69 2°58.56 17.072665 0.041374 0.208505 -0.680121
2003-04-17 07:28:08 51°22.7 2°58.59 17.073171 0.043037 0.216993 -0.680121
2003-04-17 07:28:12 51°22.71 2°58.61 17.074057 0.043973 0.221801 -0.680121
2003-04-17 07:28:18 51°22.72 2°58.63 17.074437 0.042725 0.215427 -0.71383
2003-04-17 07:28:22 51°22.73 2°58.65 17.074648 0.046156 0.233023 -0.71383
2003-04-17 07:28:28 51°22.74 2°58.68 17.074648 0.046156 0.233023 -0.71383
2003-04-17 07:28:32 51°22.75 2°58.69 17.072158 0.040646 0.204813 -0.71383
2003-04-17 07:28:38 51°22.76 2°58.72 17.073382 0.044077 0.222339 -0.680121
2003-04-17 07:28:42 51°22.76 2°58.74 17.074733 0.041582 0.209578 -0.680121
2003-04-17 07:28:48 51°22.77 2°58.76 17.074733 0.041478 0.209059 -0.680121
2003-04-17 07:28:52 51°22.78 2°58.78 17.075281 0.045532 0.229836 -0.71383
2003-04-17 07:28:58 51°22.79 2°58.81 17.075281 0.045532 0.229836 -0.71383
2003-04-17 07:29:02 51°22.8 2°58.83 17.075112 0.043141 0.217583 -0.680121
2003-04-17 07:29:08 51°22.81 2°58.85 17.075577 0.042933 0.216523 -0.71383
2003-04-17 07:29:12 51°22.82 2°58.87 17.076969 0.046468 0.234645 -0.71383
2003-04-17 07:29:18 51°22.83 2°58.89 17.078235 0.04626 0.233594 -0.680121
2003-04-17 07:29:22 51°22.84 2°58.91 17.079079 0.044077 0.222406 -0.680121
2003-04-17 07:29:28 51°22.85 2°58.94 17.079079 0.044077 0.222406 -0.680121
2003-04-17 07:29:32 51°22.85 2°58.96 17.079079 0.043141 0.217617 -0.680121
2003-04-17 07:29:38 51°22.86 2°58.98 17.080556 0.04522 0.228282 -0.71383
2003-04-17 07:29:42 51°22.87 2°59 17.080177 0.043349 0.21869 -0.71383
2003-04-17 07:29:48 51°22.88 2°59.03 17.080936 0.044181 0.22296 -0.680121
2003-04-17 07:29:52 51°22.89 2°59.04 17.082286 0.043141 0.217645 -0.680121
2003-04-17 07:29:58 51°22.9 2°59.07 17.082286 0.043141 0.217645 -0.680121
2003-04-17 07:30:02 51°22.91 2°59.09 17.083384 0.043869 0.221363 -0.680121
2003-04-17 07:30:08 51°22.92 2°59.11 17.082329 0.04231 0.213393 -0.71383
2003-04-17 07:30:12 51°22.92 2°59.13 17.083848 0.043869 0.221382 -0.71383
2003-04-17 07:30:18 51°22.94 2°59.16 17.084776 0.043661 0.22033 -0.680121
2003-04-17 07:30:22 51°22.94 2°59.17 17.084143 0.041166 0.207562 -0.680121
2003-04-17 07:30:28 51°22.95 2°59.2 17.084143 0.041166 0.207562 -0.680121
2003-04-17 07:30:32 51°22.96 2°59.22 17.084565 0.044701 0.22565 -0.680121
2003-04-17 07:30:38 51°22.97 2°59.24 17.085747 0.044493 0.224577 -0.680121
2003-04-17 07:30:42 51°22.98 2°59.26 17.087519 0.042518 0.21448 -0.74754
2003-04-17 07:30:48 51°22.99 2°59.29 17.087603 0.048651 0.24599 -0.74754
2003-04-17 07:30:52 51°22.99 2°59.31 17.087434 0.046676 0.235861 -0.680121
2003-04-17 07:30:58 51°23.01 2°59.33 17.087434 0.046676 0.235861 -0.680121
2003-04-17 07:31:02 51°23.01 2°59.35 -999 0.047507 0.240179 -0.71383
2003-04-17 07:31:08 51°23.02 2°59.38 -999 0.046468 0.234836 -0.71383
2003-04-17 07:31:12 51°23.03 2°59.39 -999 0.043765 0.220969 -0.74754
2003-04-17 07:31:18 51°23.04 2°59.42 17.831019 0.035657 0.179315 -0.71383
2003-04-17 07:31:22 51°23.05 2°59.44 18.444751 0.035865 0.180364 -0.680121
2003-04-17 07:31:28 51°23.06 2°59.46 18.444751 0.035865 0.180364 -0.680121
2003-04-17 07:31:32 51°23.06 2°59.48 18.134782 0.042518 0.214328 -0.680121
2003-04-17 07:31:38 51°23.07 2°59.5 18.225947 0.043037 0.217116 -0.71383
2003-04-17 07:31:42 51°23.08 2°59.52 18.786867 0.042206 0.21285 -0.680121
2003-04-17 07:31:48 51°23.09 2°59.54 18.571492 0.039191 0.19745 -0.71383
2003-04-17 07:31:52 51°23.09 2°59.56 18.101193 0.039087 0.196924 -0.680121
2003-04-17 07:31:58 51°23.1 2°59.58 18.101193 0.039087 0.196924 -0.680121
2003-04-17 07:32:02 51°23.11 2°59.59 17.999455 0.05177 0.262279 -0.680121
2003-04-17 07:32:08 51°23.11 2°59.62 17.932047 0.053017 0.269024 -0.71383
2003-04-17 07:32:12 51°23.12 2°59.63 18.073662 0.052497 0.266302 -0.680121
2003-04-17 07:32:18 51°23.12 2°59.65 18.407007 0.053329 0.270681 -0.680121
2003-04-17 07:32:22 51°23.12 2°59.66 18.018649 0.053849 0.273533 -0.680121
2003-04-17 07:32:28 51°23.13 2°59.68 18.018649 0.053849 0.273533 -0.680121
2003-04-17 07:32:32 51°23.13 2°59.69 18.136943 0.07194 0.368588 -0.545283
2003-04-17 07:32:38 51°23.13 2°59.71 12.139876 2.15982 13.716918 0.331161
2003-04-17 07:32:42 51°23.14 2°59.72 10.501166 0.93164 5.518172 2.454853
2003-04-17 07:32:48 51°23.14 2°59.73 12.663639 4.025778 27.45084 20.051161
2003-04-17 07:32:52 51°23.14 2°59.74 12.304341 4.046071 30.154682 65.525144
2003-04-17 07:32:58 51°23.15 2°59.75 12.304341 4.046071 30.154682 65.525144
2003-04-17 07:33:02 51°23.15 2°59.76 12.289168 3.885129 31.336647 68.255606
2003-04-17 07:33:08 51°23.16 2°59.77 11.987152 4.121009 35.441124 68.255606
2003-04-17 07:33:12 51°23.16 2°59.77 12.313806 3.840478 33.894746 68.255606
2003-04-17 07:33:18 51°23.16 2°59.78 12.015269 3.643192 32.57087 68.188187
2003-04-17 07:33:22 51°23.17 2°59.79 12.571549 3.560272 32.220122 68.221896
2003-04-17 07:33:28 51°23.17 2°59.8 12.571549 3.560272 32.220122 68.221896
2003-04-17 07:33:32 51°23.17 2°59.81 12.236237 3.492004 31.72901 68.255606
2003-04-17 07:33:38 51°23.18 2°59.81 11.637932 3.448708 31.445513 68.289315
2003-04-17 07:33:42 51°23.18 2°59.82 11.637062 3.408786 31.165304 68.255606
2003-04-17 07:33:48 51°23.18 2°59.83 10.981875 3.388458 31.027622 68.221896
2003-04-17 07:33:52 51°23.18 2°59.83 10.729624 3.370658 30.899719 68.255606
2003-04-17 07:33:58 51°23.19 2°59.84 10.729624 3.370658 30.899719 68.255606
2003-04-17 07:34:02 51°23.19 2°59.85 12.601313 3.3537 30.761117 68.289315
2003-04-17 07:34:08 51°23.19 2°59.86 12.2332 3.351384 30.763564 68.289315
2003-04-17 07:34:12 51°23.19 2°59.86 12.013359 3.338113 30.653804 68.289315
2003-04-17 07:34:18 51°23.2 2°59.87 10.729902 3.334322 30.631342 68.289315
2003-04-17 07:34:22 51°23.2 2°59.87 10.765978 3.332637 30.635233 68.323024
2003-04-17 07:34:28 51°23.2 2°59.88 10.765978 3.332637 30.635233 68.323024
2003-04-17 07:34:32 51°23.21 2°59.88 12.413035 3.324632 30.566311 68.289315
2003-04-17 07:34:38 51°23.21 2°59.89 10.109819 3.317681 30.4976 68.221896
2003-04-17 07:34:42 51°23.21 2°59.9 9.996407 3.319683 30.536188 68.323024
2003-04-17 07:34:48 51°23.21 2°59.9 11.060053 3.314311 30.484244 68.289315
2003-04-17 07:34:52 51°23.22 2°59.91 10.415934 3.317998 30.528119 68.289315
2003-04-17 07:34:58 51°23.22 2°59.91 10.415934 3.317998 30.528119 68.289315
2003-04-17 07:35:02 51°23.22 2°59.92 12.36966 3.318314 30.535545 68.289315
2003-04-17 07:35:08 51°23.22 2°59.92 12.075738 3.307993 30.438713 68.255606
2003-04-17 07:35:12 51°23.23 2°59.92 10.382604 3.31052 30.47148 68.221896
2003-04-17 07:35:18 51°23.23 2°59.93 12.113674 3.317787 30.558237 68.255606
2003-04-17 07:35:22 51°23.23 2°59.93 10.57127 3.307993 30.460396 68.289315
2003-04-17 07:35:28 51°23.23 2°59.94 10.57127 3.307993 30.460396 68.289315
2003-04-17 07:35:32 51°23.23 2°59.94 11.663773 3.312206 30.517405 68.289315
2003-04-17 07:35:38 51°23.24 2°59.94 10.871678 3.312627 30.518899 68.255606
2003-04-17 07:35:42 51°23.24 2°59.95 11.808985 3.311679 30.517643 68.323024
2003-04-17 07:35:48 51°23.24 2°59.95 12.144552 3.311258 30.511938 68.289315
2003-04-17 07:35:52 51°23.24 2°59.95 11.39916 3.313996 30.545516 68.323024
2003-04-17 07:35:58 51°23.24 2°59.96 11.39916 3.313996 30.545516 68.323024
2003-04-17 07:36:02 51°23.24 2°59.96 11.919952 3.308099 30.48529 68.255606
2003-04-17 07:36:08 51°23.24 2°59.97 11.922412 3.316313 30.574807 68.255606
2003-04-17 07:36:12 51°23.24 2°59.97 11.096685 3.309257 30.503434 68.323024
2003-04-17 07:36:18 51°23.24 2°59.97 10.945872 3.310942 30.531883 68.289315
2003-04-17 07:36:22 51°23.24 2°59.98 12.142736 3.309994 30.519388 68.289315
2003-04-17 07:36:28 51°23.24 2°59.98 12.142736 3.309994 30.519388 68.289315
2003-04-17 07:36:32 51°23.24 2°59.98 12.176731 3.305676 30.479488 68.255606
2003-04-17 07:36:38 51°23.24 2°59.99 12.253417 3.307256 30.500541 68.255606
2003-04-17 07:36:42 51°23.24 2°59.99 9.679641 3.307994 30.511586 68.289315
2003-04-17 07:36:48 51°23.24 2°59.99 10.528062 3.30852 30.520481 68.289315
2003-04-17 07:36:52 51°23.24 3°0 12.773637 3.307151 30.507892 68.255606
2003-04-17 07:36:58 51°23.24 3°0 12.773637 3.307151 30.507892 68.255606
2003-04-17 07:37:02 51°23.24 3°0 9.721953 3.300516 30.438687 68.289315
2003-04-17 07:37:08 51°23.23 3°0.01 12.553549 3.31347 30.578825 68.255606
2003-04-17 07:37:12 51°23.23 3°0.01 12.815581 3.313997 30.583505 68.221896
2003-04-17 07:37:18 51°23.23 3°0.01 10.835939 3.312312 30.566274 68.289315
2003-04-17 07:37:22 51°23.23 3°0.01 10.11525 3.31168 30.558406 68.289315
2003-04-17 07:37:28 51°23.23 3°0.02 10.11525 3.31168 30.558406 68.289315
2003-04-17 07:37:32 51°23.23 3°0.02 10.687403 3.311575 30.563664 68.255606
2003-04-17 07:37:38 51°23.23 3°0.02 12.557113 3.310732 30.554344 68.323024
2003-04-17 07:37:42 51°23.23 3°0.02 12.524486 3.311469 30.563995 68.289315
2003-04-17 07:37:48 51°23.23 3°0.03 12.115763 3.309574 30.546017 68.457862
2003-04-17 07:37:52 51°23.23 3°0.03 12.079238 3.310837 30.556125 67.480289
2003-04-17 07:37:58 51°23.23 3°0.03 12.079238 3.310837 30.556125 67.480289
2003-04-17 07:38:02 51°23.23 3°0.03 12.118352 3.310205 30.551071 67.210614
2003-04-17 07:38:08 51°23.23 3°0.03 10.912948 3.310627 30.558899 67.412871
2003-04-17 07:38:12 51°23.23 3°0.03 12.451456 3.279138 30.234286 67.210614
2003-04-17 07:38:18 51°23.23 3°0.03 12.522861 3.308942 30.540258 66.839811
2003-04-17 07:38:22 51°23.23 3°0.03 12.633723 3.310205 30.554591 65.794819
2003-04-17 07:38:28 51°23.22 3°0.03 12.633723 3.310205 30.554591 65.794819
2003-04-17 07:38:32 51°23.22 3°0.03 12.561851 3.309784 30.553098 65.154341
2003-04-17 07:38:38 51°23.22 3°0.04 10.759626 3.30831 30.537314 65.693691
2003-04-17 07:38:42 51°23.22 3°0.04 12.702636 3.309047 30.549077 64.918375
2003-04-17 07:38:48 51°23.22 3°0.04 10.49437 3.312417 30.577211 64.716118
2003-04-17 07:38:52 51°23.22 3°0.04 13.036195 3.309152 30.548747 64.513862
2003-04-17 07:38:58 51°23.22 3°0.04 13.036195 3.309152 30.548747 64.513862
2003-04-17 07:39:02 51°23.22 3°0.04 13.034672 3.3101 30.559851 64.817247
2003-04-17 07:39:08 51°23.22 3°0.04 12.410277 3.311153 30.572738 64.985794
2003-04-17 07:39:12 51°23.22 3°0.04 11.026493 3.311575 30.576343 64.783537
2003-04-17 07:39:18 51°23.21 3°0.04 12.18948 3.310732 30.572656 64.783537
2003-04-17 07:39:22 51°23.21 3°0.04 12.782855 3.30989 30.561218 64.6487
2003-04-17 07:39:28 51°23.21 3°0.04 12.782855 3.30989 30.561218 64.6487
2003-04-17 07:39:32 51°23.21 3°0.04 12.338978 3.309995 30.563704 64.884665
2003-04-17 07:39:38 51°23.21 3°0.03 10.233035 3.310732 30.572656 64.783537
2003-04-17 07:39:42 51°23.21 3°0.03 12.459048 3.310522 30.572615 64.311606
2003-04-17 07:39:48 51°23.21 3°0.03 11.790138 3.310311 30.571165 63.536289
2003-04-17 07:39:52 51°23.21 3°0.03 12.530309 3.309784 30.565072 62.289042
2003-04-17 07:39:58 51°23.21 3°0.03 12.530309 3.309784 30.565072 62.289042
2003-04-17 07:40:02 51°23.2 3°0.03 12.642239 3.308942 30.555746 61.513725
2003-04-17 07:40:08 51°23.2 3°0.03 11.981236 3.308205 30.546795 60.603571
2003-04-17 07:40:12 51°23.2 3°0.03 10.666235 3.309784 30.56789 60.064221
2003-04-17 07:40:18 51°23.2 3°0.03 12.506789 3.307889 30.544971 59.861965
2003-04-17 07:40:22 51°23.2 3°0.03 12.283731 3.308837 30.552556 60.300187
2003-04-17 07:40:28 51°23.2 3°0.02 12.283731 3.308837 30.552556 60.300187
2003-04-17 07:40:32 51°23.2 3°0.02 11.990838 3.310311 30.57046 59.760836
2003-04-17 07:40:38 51°23.2 3°0.02 11.202039 3.309995 30.565113 59.963093
2003-04-17 07:40:42 51°23.2 3°0.02 12.581968 3.311154 30.577671 60.199059
2003-04-17 07:40:48 51°23.19 3°0.02 12.279337 3.31168 30.577421 60.064221
2003-04-17 07:40:52 51°23.19 3°0.02 12.052557 3.311785 30.577794 59.895674
2003-04-17 07:40:58 51°23.19 3°0.02 12.052557 3.311785 30.577794 59.895674
2003-04-17 07:41:02 51°23.19 3°0.01 12.324808 3.31168 30.576011 59.760836
2003-04-17 07:41:08 51°23.19 3°0.01 12.00931 3.312733 30.586081 59.895674
2003-04-17 07:41:12 51°23.19 3°0.01 10.424602 3.312101 30.578912 59.996802
2003-04-17 07:41:18 51°23.19 3°0.01 12.439119 3.312839 30.586454 60.637281
2003-04-17 07:41:22 51°23.19 3°0.01 12.344228 3.31326 30.595699 60.805828
2003-04-17 07:41:28 51°23.18 3°0.01 12.344228 3.31326 30.595699 60.805828
2003-04-17 07:41:32 51°23.18 3°0 10.655742 3.311469 30.579495 60.839537
2003-04-17 07:41:38 51°23.18 3°0 10.196197 3.31326 30.599931 60.805828
2003-04-17 07:41:42 51°23.18 3°0 12.453761 3.313049 30.602714 60.199059
2003-04-17 07:41:48 51°23.18 3°0 12.565234 3.312101 30.59654 60.435024
2003-04-17 07:41:52 51°23.18 3°0 11.746856 3.311048 30.586465 59.55858
2003-04-17 07:41:58 51°23.18 3°0 11.746856 3.311048 30.586465 59.55858
2003-04-17 07:42:02 51°23.18 2°59.99 12.974396 3.312523 30.602969 59.154067
2003-04-17 07:42:08 51°23.17 2°59.99 13.30464 3.312944 30.60587 59.423742
2003-04-17 07:42:12 51°23.17 2°59.99 12.93964 3.312733 30.60442 58.951811
2003-04-17 07:42:18 51°23.17 2°59.99 11.645571 3.31147 30.592188 59.154067
2003-04-17 07:42:22 51°23.17 2°59.99 12.206219 3.313155 30.609438 59.356324
2003-04-17 07:42:28 51°23.17 2°59.99 12.206219 3.313155 30.609438 59.356324
2003-04-17 07:42:32 51°23.17 2°59.98 11.458177 3.311996 30.59899 59.322614
2003-04-17 07:42:38 51°23.17 2°59.98 12.096685 3.312523 30.603675 59.390033
2003-04-17 07:42:42 51°23.16 2°59.98 9.786264 3.309574 30.572784 59.794546
2003-04-17 07:42:48 51°23.16 2°59.98 12.315843 3.312523 30.600852 60.300187
2003-04-17 07:42:52 51°23.16 2°59.98 11.374685 3.31168 30.592933 60.873247
2003-04-17 07:42:58 51°23.16 2°59.98 11.374685 3.31168 30.592933 60.873247
2003-04-17 07:43:02 51°23.16 2°59.98 11.971087 3.311364 30.588288 62.053076
2003-04-17 07:43:08 51°23.16 2°59.98 12.271045 3.311996 30.594051 62.187913
2003-04-17 07:43:12 51°23.16 2°59.98 12.455749 3.311364 30.588288 62.659845
2003-04-17 07:43:18 51°23.16 2°59.97 12.491481 3.3101 30.575353 63.300324
2003-04-17 07:43:22 51°23.16 2°59.97 12.674449 3.311891 30.592973 63.873383
2003-04-17 07:43:28 51°23.16 2°59.97 12.674449 3.311891 30.592973 63.873383
2003-04-17 07:43:32 51°23.16 2°59.97 10.306975 3.31168 30.593639 64.143059
2003-04-17 07:43:38 51°23.15 2°59.97 13.590051 3.311259 30.592854 64.817247
2003-04-17 07:43:42 51°23.15 2°59.97 12.670035 3.310206 30.582778 64.985794
2003-04-17 07:43:48 51°23.15 2°59.97 12.407202 3.310732 30.590991 64.143059
2003-04-17 07:43:52 51°23.15 2°59.97 12.701285 3.310206 30.587717 63.772255
2003-04-17 07:43:58 51°23.15 2°59.97 12.701285 3.310206 30.587717 63.772255
2003-04-17 07:44:02 51°23.15 2°59.97 10.521083 3.310311 30.589501 63.199195
2003-04-17 07:44:08 51°23.15 2°59.97 12.359796 3.311154 30.598834 62.794683
2003-04-17 07:44:12 51°23.15 2°59.97 10.820655 3.311996 30.608873 62.154204
2003-04-17 07:44:18 51°23.15 2°59.97 11.501512 3.312418 30.613894 62.086785
2003-04-17 07:44:22 51°23.15 2°59.97 13.023741 3.311154 30.604482 63.098067
2003-04-17 07:44:28 51°23.15 2°59.97 13.023741 3.311154 30.604482 63.098067
2003-04-17 07:44:32 51°23.15 2°59.98 12.061922 3.308732 30.581087 64.277896
2003-04-17 07:44:38 51°23.14 2°59.98 10.665585 3.312207 30.622334 64.6487
2003-04-17 07:44:42 51°23.14 2°59.98 10.77979 3.312418 30.626613 64.6487
2003-04-17 07:44:48 51°23.14 2°59.98 12.797736 3.310733 30.612176 64.345315
2003-04-17 07:44:52 51°23.14 2°59.98 10.662846 3.311365 30.61865 63.569999
2003-04-17 07:44:58 51°23.14 2°59.98 10.662846 3.311365 30.61865 63.569999
2003-04-17 07:45:02 51°23.14 2°59.98 11.45593 3.309785 30.605998 64.412734
2003-04-17 07:45:08 51°23.14 2°59.98 11.944318 3.311259 30.623934 64.6487
2003-04-17 07:45:12 51°23.14 2°59.99 12.539606 3.312629 30.637257 64.61499
2003-04-17 07:45:18 51°23.14 2°59.99 13.200966 3.310733 30.617831 64.716118
2003-04-17 07:45:22 51°23.14 2°59.99 10.510846 3.312418 30.637221 65.424016
2003-04-17 07:45:28 51°23.14 2°59.99 10.510846 3.312418 30.637221 65.424016
2003-04-17 07:45:32 51°23.14 2°59.99 12.796208 3.311259 30.629592 65.289178
2003-04-17 07:45:38 51°23.14 2°59.99 10.54574 3.312629 30.641503 64.850956
2003-04-17 07:45:42 51°23.14 2°59.99 11.753113 3.31305 30.64582 63.199195
2003-04-17 07:45:48 51°23.14 3°0 11.787993 3.312734 30.64329 62.727264
2003-04-17 07:45:52 51°23.14 3°0 11.447947 3.313261 30.649395 62.828392
2003-04-17 07:45:58 51°23.14 3°0 11.447947 3.313261 30.649395 62.828392
2003-04-17 07:46:02 51°23.14 3°0 11.332232 3.310206 30.618798 63.165486
2003-04-17 07:46:08 51°23.14 3°0.01 12.159985 3.312629 30.643626 63.536289
2003-04-17 07:46:12 51°23.14 3°0.01 12.380699 3.313366 30.652598 63.435161
2003-04-17 07:46:18 51°23.14 3°0.01 10.729392 3.312629 30.646457 64.345315
2003-04-17 07:46:22 51°23.14 3°0.01 13.632729 3.31305 30.652899 65.592563
2003-04-17 07:46:28 51°23.14 3°0.01 13.632729 3.31305 30.652899 65.592563
2003-04-17 07:46:32 51°23.14 3°0.02 12.418235 3.311891 30.641023 66.064494
2003-04-17 07:46:38 51°23.14 3°0.02 12.857184 3.313155 30.65752 65.659982
2003-04-17 07:46:42 51°23.14 3°0.02 11.480926 3.312839 30.653572 65.7274
2003-04-17 07:46:48 51°23.14 3°0.02 12.412493 3.313577 30.661839 65.659982
2003-04-17 07:46:52 51°23.14 3°0.03 10.686939 3.310733 30.633392 66.030785
2003-04-17 07:46:58 51°23.14 3°0.03 10.686939 3.310733 30.633392 66.030785
2003-04-17 07:47:02 51°23.14 3°0.03 12.560678 3.313893 30.666496 65.828529
2003-04-17 07:47:08 51°23.15 3°0.03 12.151497 3.312945 30.65961 67.311742
2003-04-17 07:47:12 51°23.15 3°0.04 10.992085 3.312629 30.657079 68.087059
2003-04-17 07:47:18 51°23.15 3°0.04 12.990131 3.313998 30.669702 68.356734
2003-04-17 07:47:22 51°23.15 3°0.04 12.523222 3.314946 30.68084 67.952221
2003-04-17 07:47:28 51°23.15 3°0.04 12.523222 3.314946 30.68084 67.952221
2003-04-17 07:47:32 51°23.15 3°0.05 11.366417 3.309048 30.623192 68.01964
2003-04-17 07:47:38 51°23.15 3°0.05 12.227487 3.309259 30.626767 68.525281
2003-04-17 07:47:42 51°23.15 3°0.05 11.443222 3.312418 30.657044 68.457862
2003-04-17 07:47:48 51°23.15 3°0.06 12.595542 3.31305 30.664942 68.491571
2003-04-17 07:47:52 51°23.15 3°0.06 11.813001 3.313366 30.668891 68.255606
2003-04-17 07:47:58 51°23.15 3°0.06 11.813001 3.313366 30.668891 68.255606
2003-04-17 07:48:02 51°23.15 3°0.06 12.553865 3.31126 30.645163 68.356734
2003-04-17 07:48:08 51°23.15 3°0.07 13.573612 3.311576 30.651945 68.5927
2003-04-17 07:48:12 51°23.15 3°0.07 12.514194 3.312524 30.660249 68.457862
2003-04-17 07:48:18 51°23.16 3°0.07 12.178319 3.313471 30.669262 68.255606
2003-04-17 07:48:22 51°23.16 3°0.07 11.720407 3.313682 30.674967 68.255606
2003-04-17 07:48:28 51°23.16 3°0.07 11.720407 3.313682 30.674967 68.255606
2003-04-17 07:48:32 51°23.16 3°0.08 12.698404 3.313366 30.673144 68.289315
2003-04-17 07:48:38 51°23.16 3°0.08 11.847348 3.313366 30.673144 68.289315
2003-04-17 07:48:42 51°23.16 3°0.08 11.886599 3.312208 30.666222 68.221896
2003-04-17 07:48:48 51°23.16 3°0.08 11.579442 3.312208 30.666222 68.289315
2003-04-17 07:48:52 51°23.16 3°0.08 11.726483 3.313682 30.684896 68.289315
2003-04-17 07:48:58 51°23.16 3°0.09 11.726483 3.313682 30.684896 68.289315
2003-04-17 07:49:02 51°23.16 3°0.09 12.543487 3.310101 30.648156 68.255606
2003-04-17 07:49:08 51°23.16 3°0.09 13.643427 3.31305 30.676284 68.457862
2003-04-17 07:49:12 51°23.16 3°0.09 10.439279 3.313261 30.677736 68.424153
2003-04-17 07:49:18 51°23.16 3°0.09 13.381956 3.314103 30.686381 68.289315
2003-04-17 07:49:22 51°23.17 3°0.09 11.491334 3.313787 30.684558 68.255606
2003-04-17 07:49:28 51°23.17 3°0.09 11.491334 3.313787 30.684558 68.255606
2003-04-17 07:49:32 51°23.17 3°0.1 13.233309 3.31305 30.68125 68.255606
2003-04-17 07:49:38 51°23.17 3°0.1 13.271483 3.313682 30.689154 68.221896
2003-04-17 07:49:42 51°23.17 3°0.1 11.977049 3.312734 30.681555 68.255606
2003-04-17 07:49:48 51°23.17 3°0.1 11.826231 3.30947 30.647342 68.255606
2003-04-17 07:49:52 51°23.17 3°0.1 12.754612 3.31284 30.685474 68.221896
2003-04-17 07:49:58 51°23.17 3°0.1 12.754612 3.31284 30.685474 68.221896
2003-04-17 07:50:02 51°23.17 3°0.1 12.799535 3.313682 30.694832 68.255606
2003-04-17 07:50:08 51°23.17 3°0.1 12.725861 3.313156 30.691557 68.289315
2003-04-17 07:50:12 51°23.18 3°0.1 11.911479 3.308732 30.646865 68.221896
2003-04-17 07:50:18 51°23.18 3°0.1 10.821952 3.311049 30.672774 68.221896
2003-04-17 07:50:22 51°23.18 3°0.1 12.656026 3.308101 30.643215 68.221896
2003-04-17 07:50:28 51°23.18 3°0.1 12.656026 3.308101 30.643215 68.221896
2003-04-17 07:50:32 51°23.18 3°0.1 12.61903 3.31284 30.690443 68.255606
2003-04-17 07:50:38 51°23.18 3°0.1 10.823944 3.310102 30.663045 68.289315
2003-04-17 07:50:42 51°23.18 3°0.1 12.952109 3.311892 30.677875 68.255606
2003-04-17 07:50:48 51°23.18 3°0.1 11.69445 3.308311 30.642542 68.255606
2003-04-17 07:50:52 51°23.19 3°0.1 11.733107 3.310207 30.657743 68.255606
2003-04-17 07:50:58 51°23.19 3°0.1 11.733107 3.310207 30.657743 68.255606
2003-04-17 07:51:02 51°23.19 3°0.1 11.057284 3.312418 30.679731 68.289315
2003-04-17 07:51:08 51°23.19 3°0.1 12.846988 3.309154 30.646226 68.289315
2003-04-17 07:51:12 51°23.19 3°0.1 12.483984 3.311576 30.671085 68.289315
2003-04-17 07:51:18 51°23.19 3°0.1 9.917419 3.312102 30.676489 68.289315
2003-04-17 07:51:22 51°23.19 3°0.1 12.263206 3.310628 30.65923 68.457862
2003-04-17 07:51:28 51°23.2 3°0.1 12.263206 3.310628 30.65923 68.457862
2003-04-17 07:51:32 51°23.2 3°0.1 12.850806 3.310101 30.653118 68.221896
2003-04-17 07:51:38 51°23.2 3°0.09 11.136293 3.309154 30.642683 68.221896
2003-04-17 07:51:42 51°23.2 3°0.09 11.478449 3.309154 30.638432 68.525281
2003-04-17 07:51:48 51°23.2 3°0.09 11.740553 3.311786 30.665445 68.390443
2003-04-17 07:51:52 51°23.2 3°0.09 12.99542 3.311155 30.657544 68.289315
2003-04-17 07:51:58 51°23.2 3°0.09 12.99542 3.311155 30.657544 68.289315
2003-04-17 07:52:02 51°23.2 3°0.09 12.405936 3.310628 30.652142 68.289315
2003-04-17 07:52:08 51°23.2 3°0.09 11.01772 3.307574 30.618687 68.491571
2003-04-17 07:52:12 51°23.2 3°0.09 12.067649 3.308206 30.628 68.525281
2003-04-17 07:52:18 51°23.2 3°0.09 12.809378 3.30789 30.624759 68.457862
2003-04-17 07:52:22 51°23.2 3°0.09 10.18025 3.306836 30.61254 67.98593
2003-04-17 07:52:28 51°23.2 3°0.09 10.18025 3.306836 30.61254 67.98593
2003-04-17 07:52:32 51°23.2 3°0.09 11.695319 3.310628 30.652142 68.120768
2003-04-17 07:52:38 51°23.2 3°0.09 10.715615 3.306731 30.613583 67.783674
2003-04-17 07:52:42 51°23.2 3°0.09 12.662287 3.308943 30.638396 66.704973
2003-04-17 07:52:48 51°23.21 3°0.09 12.99031 3.308416 30.634411 65.086922
2003-04-17 07:52:52 51°23.2 3°0.09 10.976053 3.307995 30.630797 64.547571
2003-04-17 07:52:58 51°23.2 3°0.09 10.976053 3.307995 30.630797 64.547571
2003-04-17 07:53:02 51°23.2 3°0.09 11.690245 3.307574 30.625767 63.873383
2003-04-17 07:53:08 51°23.2 3°0.09 12.247706 3.308627 30.636572 64.345315
2003-04-17 07:53:12 51°23.2 3°0.09 12.210028 3.309891 30.649539 64.985794
2003-04-17 07:53:18 51°23.2 3°0.09 12.469755 3.311786 30.668281 66.098204
2003-04-17 07:53:22 51°23.2 3°0.09 13.060782 3.30968 30.648795 67.278033
2003-04-17 07:53:28 51°23.2 3°0.09 13.060782 3.30968 30.648795 67.278033
2003-04-17 07:53:32 51°23.2 3°0.08 12.732791 3.311155 30.666052 68.457862
2003-04-17 07:53:38 51°23.2 3°0.08 12.880804 3.310207 30.657743 68.491571
2003-04-17 07:53:42 51°23.2 3°0.08 13.426058 3.307258 30.628899 68.457862
2003-04-17 07:53:48 51°23.2 3°0.08 11.457673 3.307258 30.628191 67.952221
2003-04-17 07:53:52 51°23.2 3°0.08 11.308007 3.305889 30.615559 67.716255
2003-04-17 07:53:58 51°23.2 3°0.08 11.308007 3.305889 30.615559 67.716255
2003-04-17 07:54:02 51°23.2 3°0.08 12.20191 3.310101 30.657371 67.345452
2003-04-17 07:54:08 51°23.2 3°0.08 13.564946 3.310417 30.659905 67.109486
2003-04-17 07:54:12 51°23.2 3°0.08 12.645934 3.311576 30.673922 67.716255
2003-04-17 07:54:18 51°23.2 3°0.08 12.904013 3.310839 30.667065 68.255606
2003-04-17 07:54:22 51°23.2 3°0.08 11.680142 3.310417 30.66416 68.491571
2003-04-17 07:54:28 51°23.2 3°0.08 11.680142 3.310417 30.66416 68.491571
2003-04-17 07:54:32 51°23.2 3°0.08 11.52956 3.309891 30.663011 68.390443
2003-04-17 07:54:38 51°23.2 3°0.08 11.826869 3.310734 30.673789 68.221896
2003-04-17 07:54:42 51°23.19 3°0.08 12.049466 3.310839 30.67487 68.221896
2003-04-17 07:54:48 51°23.19 3°0.08 12.901679 3.310733 30.673079 68.289315
2003-04-17 07:54:52 51°23.19 3°0.08 12.900063 3.30789 30.644598 68.255606